M I D A S
Marine Information and Data Acquisition System
Tripno 1069 of the Zeeleeuw from 2006-04-10 07:21:34 to 2006-04-10 13:24:46
Back to CruiseResearch ActivitiesStationsMapUnderway DataData graphs

EquipmentUnitsComment
TimeDGPSUTC
LatitudeDGPSDM.mWGS84
LongitudeDGPSDM.mWGS84
TemperatureSBE03/SBE38deg celciusITS90
ConductivitySBE21S/mITS90
SalinitySBE21 Practical Salinity Units
ChlorophylAChelsea fluorimeterg/lCalibrated in Aceton
Missing or incorrect values are displayed as -999
Sea surface data collected by the RV Zeeleeuw from 2006-04-10 07:21:20 to 2006-04-10 13:38:36
                                                                                    Next 1000 lines
Time Latitude Longitude Temperature Conductivity Salinity ChlorophylA
2006-04-10 07:21:29 51°13.601 2°56.096 -999 3.206538 30.018547 9.938341
2006-04-10 07:21:34 51°13.601 2°56.093 -999 3.19288 29.869366 9.938341
2006-04-10 07:21:40 51°13.602 2°56.09 -999 3.19288 29.869366 9.938341
2006-04-10 07:21:44 51°13.602 2°56.087 -999 3.181084 29.735786 9.904631
2006-04-10 07:21:50 51°13.604 2°56.082 -999 3.167736 29.58787 9.904631
2006-04-10 07:21:55 51°13.605 2°56.077 -999 3.161632 29.521762 9.904631
2006-04-10 07:22:00 51°13.606 2°56.072 -999 3.154182 29.439524 9.904631
2006-04-10 07:22:05 51°13.608 2°56.066 -999 3.148388 29.375181 9.904631
2006-04-10 07:22:10 51°13.609 2°56.06 -999 3.148388 29.375181 9.904631
2006-04-10 07:22:15 51°13.611 2°56.054 -999 3.147974 29.366372 10.5114
2006-04-10 07:22:20 51°13.612 2°56.046 -999 3.14994 29.388924 11.050751
2006-04-10 07:22:25 51°13.614 2°56.039 -999 3.154493 29.438936 11.050751
2006-04-10 07:22:30 51°13.615 2°56.031 -999 3.162873 29.53002 11.11817
2006-04-10 07:22:35 51°13.617 2°56.023 -999 3.17053 29.61292 11.151879
2006-04-10 07:22:40 51°13.619 2°56.014 -999 3.17053 29.61292 11.151879
2006-04-10 07:22:45 51°13.621 2°56.006 -999 3.176531 29.682584 11.11817
2006-04-10 07:22:50 51°13.623 2°55.997 -999 3.185947 29.786087 11.050751
2006-04-10 07:22:54 51°13.625 2°55.989 -999 3.190914 29.845166 11.017042
2006-04-10 07:23:00 51°13.628 2°55.978 -999 3.196812 29.915475 10.949623
2006-04-10 07:23:05 51°13.63 2°55.968 -999 3.188948 29.837904 10.882204
2006-04-10 07:23:10 51°13.632 2°55.959 -999 3.188948 29.837904 10.882204
2006-04-10 07:23:14 51°13.634 2°55.951 -999 3.18067 29.755291 10.781076
2006-04-10 07:23:20 51°13.638 2°55.939 -999 3.171151 29.657552 10.713657
2006-04-10 07:23:25 51°13.64 2°55.93 -999 3.162564 29.567957 10.646238
2006-04-10 07:23:30 51°13.643 2°55.921 -999 3.149941 29.435177 10.578819
2006-04-10 07:23:35 51°13.646 2°55.912 -999 3.135042 29.279746 10.54511
2006-04-10 07:23:40 51°13.649 2°55.903 -999 3.135042 29.279746 10.54511
2006-04-10 07:23:45 51°13.652 2°55.895 -999 3.122421 29.147179 10.477691
2006-04-10 07:23:50 51°13.655 2°55.887 -999 3.109696 29.014395 10.477691
2006-04-10 07:23:55 51°13.658 2°55.879 -999 3.101419 28.926814 10.5114
2006-04-10 07:24:00 51°13.66 2°55.871 -999 3.092729 28.835761 10.54511
2006-04-10 07:24:05 51°13.664 2°55.863 -999 3.083005 28.734101 10.578819
2006-04-10 07:24:10 51°13.667 2°55.855 -999 3.083005 28.734101 10.578819
2006-04-10 07:24:15 51°13.67 2°55.847 -999 3.077729 28.679772 10.646238
2006-04-10 07:24:20 51°13.674 2°55.839 -999 3.066868 28.567962 10.646238
2006-04-10 07:24:25 51°13.678 2°55.831 -999 3.05942 28.490591 10.679947
2006-04-10 07:24:30 51°13.682 2°55.822 -999 3.0498 28.391647 10.747366
2006-04-10 07:24:34 51°13.685 2°55.816 -999 3.039249 28.283182 10.814785
2006-04-10 07:24:40 51°13.69 2°55.806 -999 3.039249 28.283182 10.814785
2006-04-10 07:24:45 51°13.693 2°55.799 -999 3.032525 28.214091 10.983332
2006-04-10 07:24:50 51°13.697 2°55.791 -999 3.031284 28.202065 11.151879
2006-04-10 07:24:55 51°13.7 2°55.783 -999 3.035732 28.249224 11.354136
2006-04-10 07:25:00 51°13.703 2°55.776 -999 3.0408 28.303508 11.556392
2006-04-10 07:25:05 51°13.706 2°55.768 -999 3.047627 28.375896 11.69123
2006-04-10 07:25:10 51°13.709 2°55.761 -999 3.047627 28.375896 11.69123
2006-04-10 07:25:15 51°13.712 2°55.754 -999 3.052696 28.430962 11.826067
2006-04-10 07:25:20 51°13.714 2°55.748 -999 3.053834 28.445603 11.859777
2006-04-10 07:25:25 51°13.716 2°55.743 -999 3.0468 28.373972 11.893486
2006-04-10 07:25:30 51°13.718 2°55.738 -999 3.040801 28.312269 11.893486
2006-04-10 07:25:35 51°13.719 2°55.735 -999 3.035111 28.252316 11.927195
2006-04-10 07:25:40 51°13.719 2°55.733 -999 3.035111 28.252316 11.927195
2006-04-10 07:25:45 51°13.72 2°55.732 -999 3.029216 28.192442 11.994614
2006-04-10 07:25:50 51°13.72 2°55.733 -999 3.021458 28.113453 12.028324
2006-04-10 07:25:55 51°13.72 2°55.734 -999 3.017321 28.070949 12.062033
2006-04-10 07:26:00 51°13.72 2°55.735 -999 3.010391 28.001221 12.129452
2006-04-10 07:26:05 51°13.72 2°55.737 -999 3.008632 27.983886 12.129452
2006-04-10 07:26:10 51°13.719 2°55.739 -999 3.008632 27.983886 12.129452
2006-04-10 07:26:14 51°13.72 2°55.741 -999 3.003357 27.929006 12.129452
2006-04-10 07:26:20 51°13.72 2°55.745 -999 2.998289 27.876265 12.129452
2006-04-10 07:26:25 51°13.72 2°55.747 -999 2.989188 27.782157 12.095742
2006-04-10 07:26:30 51°13.72 2°55.748 -999 2.971295 27.596549 11.994614
2006-04-10 07:26:35 51°13.72 2°55.749 -999 2.953714 27.412895 11.927195
2006-04-10 07:26:40 51°13.72 2°55.749 -999 2.953714 27.412895 11.927195
2006-04-10 07:26:45 51°13.719 2°55.748 -999 2.923413 27.097273 11.792358
2006-04-10 07:26:50 51°13.719 2°55.747 -999 2.881119 26.657118 11.724939
2006-04-10 07:26:55 51°13.718 2°55.744 -999 2.855269 26.387526 11.69123
2006-04-10 07:27:00 51°13.717 2°55.74 -999 2.837692 26.204549 11.69123
2006-04-10 07:27:05 51°13.716 2°55.736 -999 2.828903 26.113814 11.724939
2006-04-10 07:27:10 51°13.715 2°55.732 -999 2.828903 26.113814 11.724939
2006-04-10 07:27:14 51°13.715 2°55.728 -999 2.824354 26.066217 11.724939
2006-04-10 07:27:20 51°13.714 2°55.724 -999 2.824768 26.069079 11.758648
2006-04-10 07:27:25 51°13.713 2°55.721 -999 2.824664 26.068028 11.792358
2006-04-10 07:27:30 51°13.713 2°55.72 -999 2.829317 26.117347 11.994614
2006-04-10 07:27:34 51°13.713 2°55.72 -999 2.859922 26.432192 12.163161
2006-04-10 07:27:40 51°13.713 2°55.722 -999 2.859922 26.432192 12.163161
2006-04-10 07:27:45 51°13.714 2°55.725 -999 2.889288 26.734248 12.297999
2006-04-10 07:27:50 51°13.716 2°55.728 -999 2.904489 26.890741 12.399127
2006-04-10 07:27:55 51°13.718 2°55.732 -999 2.931479 27.16854 12.466546
2006-04-10 07:28:00 51°13.72 2°55.735 -999 2.946681 27.329627 12.533965
2006-04-10 07:28:05 51°13.722 2°55.738 -999 2.962194 27.492657 12.533965
2006-04-10 07:28:10 51°13.723 2°55.741 -999 2.962194 27.492657 12.533965
2006-04-10 07:28:15 51°13.724 2°55.743 -999 2.974811 27.623331 12.533965
2006-04-10 07:28:20 51°13.725 2°55.743 -999 2.978948 27.667155 12.567674
2006-04-10 07:28:25 51°13.724 2°55.743 -999 2.98081 27.686237 12.500255
2006-04-10 07:28:30 51°13.723 2°55.743 -999 2.967675 27.549507 12.432836
2006-04-10 07:28:34 51°13.722 2°55.743 -999 2.940269 27.264034 12.399127
2006-04-10 07:28:40 51°13.72 2°55.741 -999 2.940269 27.264034 12.399127
2006-04-10 07:28:45 51°13.717 2°55.739 -999 2.908108 26.930466 12.365418
2006-04-10 07:28:50 51°13.715 2°55.737 -999 2.893734 26.780987 12.365418
2006-04-10 07:28:55 51°13.712 2°55.736 -999 2.88236 26.662904 12.331708
2006-04-10 07:29:00 51°13.71 2°55.734 -999 2.880085 26.638337 12.331708
2006-04-10 07:29:05 51°13.708 2°55.733 -999 2.877396 26.610245 12.365418
2006-04-10 07:29:10 51°13.707 2°55.732 -999 2.877396 26.610245 12.365418
2006-04-10 07:29:15 51°13.706 2°55.731 -999 2.886082 26.701553 12.432836
2006-04-10 07:29:20 51°13.706 2°55.731 -999 2.898077 26.826686 12.500255
2006-04-10 07:29:25 51°13.706 2°55.731 -999 2.920207 27.055439 12.601383
2006-04-10 07:29:30 51°13.707 2°55.732 -999 2.933444 27.193531 12.635093
2006-04-10 07:29:35 51°13.709 2°55.732 -999 2.94089 27.272489 12.668802
2006-04-10 07:29:40 51°13.711 2°55.732 -999 2.94089 27.272489 12.668802
2006-04-10 07:29:45 51°13.714 2°55.732 -999 2.954231 27.412536 12.702512
2006-04-10 07:29:50 51°13.717 2°55.731 -999 2.957437 27.446774 12.702512
2006-04-10 07:29:55 51°13.721 2°55.729 -999 2.961677 27.491614 12.702512
2006-04-10 07:30:00 51°13.725 2°55.726 -999 2.962711 27.503624 12.702512
2006-04-10 07:30:05 51°13.73 2°55.722 -999 2.960022 27.476083 12.736221
2006-04-10 07:30:10 51°13.735 2°55.716 -999 2.960022 27.476083 12.736221
2006-04-10 07:30:15 51°13.74 2°55.711 -999 2.955678 27.430894 12.702512
2006-04-10 07:30:20 51°13.745 2°55.705 -999 2.948336 27.355722 12.668802
2006-04-10 07:30:25 51°13.751 2°55.698 -999 2.930548 27.172328 12.567674
2006-04-10 07:30:30 51°13.757 2°55.692 -999 2.910383 26.964813 12.567674
2006-04-10 07:30:34 51°13.762 2°55.687 -999 2.894665 26.801529 12.567674
2006-04-10 07:30:40 51°13.77 2°55.68 -999 2.894665 26.801529 12.567674
2006-04-10 07:30:45 51°13.777 2°55.673 -999 2.89208 26.773763 12.736221
2006-04-10 07:30:50 51°13.784 2°55.667 -999 2.90118 26.866654 13.140734
2006-04-10 07:30:55 51°13.791 2°55.66 -999 2.909142 26.948663 13.578956
2006-04-10 07:31:00 51°13.799 2°55.654 -999 2.91483 27.00607 13.91605
2006-04-10 07:31:05 51°13.806 2°55.648 -999 2.920414 27.063828 14.253144
2006-04-10 07:31:10 51°13.814 2°55.641 -999 2.920414 27.063828 14.253144
2006-04-10 07:31:15 51°13.821 2°55.635 -999 2.938097 27.246736 14.320563
2006-04-10 07:31:20 51°13.829 2°55.629 -999 2.947819 27.3462 14.354272
2006-04-10 07:31:25 51°13.837 2°55.623 -999 2.954541 27.415005 14.320563
2006-04-10 07:31:30 51°13.845 2°55.617 -999 2.958678 27.457359 14.219435
2006-04-10 07:31:35 51°13.853 2°55.611 -999 2.964469 27.518796 14.084597
2006-04-10 07:31:40 51°13.861 2°55.606 -999 2.964469 27.518796 14.084597
2006-04-10 07:31:45 51°13.869 2°55.6 -999 2.962814 27.504684 13.949759
2006-04-10 07:31:50 51°13.876 2°55.594 -999 2.963745 27.516346 13.814922
2006-04-10 07:31:55 51°13.884 2°55.589 -999 2.964573 27.525532 13.680084
2006-04-10 07:32:00 51°13.891 2°55.583 -999 2.969847 27.58171 13.612665
2006-04-10 07:32:05 51°13.899 2°55.577 -999 2.977501 27.663012 13.545247
2006-04-10 07:32:10 51°13.906 2°55.572 -999 2.977501 27.663012 13.545247
2006-04-10 07:32:15 51°13.914 2°55.566 -999 2.985775 27.75001 13.545247
2006-04-10 07:32:20 51°13.921 2°55.561 -999 2.994773 27.844486 13.511537
2006-04-10 07:32:24 51°13.927 2°55.557 -999 3.004288 27.942166 13.444118
2006-04-10 07:32:30 51°13.936 2°55.55 -999 3.015873 28.063314 13.3767
2006-04-10 07:32:35 51°13.943 2°55.545 -999 3.025906 28.169326 13.309281
2006-04-10 07:32:40 51°13.95 2°55.54 -999 3.025906 28.169326 13.309281
2006-04-10 07:32:45 51°13.958 2°55.534 -999 3.039042 28.30587 13.174443
2006-04-10 07:32:50 51°13.965 2°55.529 -999 3.048248 28.402057 13.073315
2006-04-10 07:32:54 51°13.972 2°55.524 -999 3.057455 28.499033 12.972187
2006-04-10 07:33:00 51°13.982 2°55.517 -999 3.068109 28.610986 12.837349
2006-04-10 07:33:05 51°13.991 2°55.51 -999 3.077626 28.711285 12.76993
2006-04-10 07:33:10 51°14.001 2°55.503 -999 3.077626 28.711285 12.76993
2006-04-10 07:33:14 51°14.009 2°55.497 -999 3.086833 28.808443 12.702512
2006-04-10 07:33:20 51°14.021 2°55.488 -999 3.088592 28.830304 12.601383
2006-04-10 07:33:25 51°14.031 2°55.481 -999 3.086213 28.808737 12.500255
2006-04-10 07:33:30 51°14.042 2°55.474 -999 3.081868 28.76838 12.399127
2006-04-10 07:33:34 51°14.051 2°55.468 -999 3.077523 28.728763 12.297999
2006-04-10 07:33:40 51°14.065 2°55.458 -999 3.077523 28.728763 12.297999
2006-04-10 07:33:45 51°14.076 2°55.45 -999 3.06842 28.640803 12.23058
2006-04-10 07:33:50 51°14.087 2°55.442 -999 3.062834 28.589854 12.23058
2006-04-10 07:33:55 51°14.099 2°55.434 -999 3.05849 28.550959 12.196871
2006-04-10 07:33:59 51°14.108 2°55.427 -999 3.056628 28.535447 12.196871
2006-04-10 07:34:04 51°14.119 2°55.418 -999 3.056524 28.53807 12.163161
2006-04-10 07:34:10 51°14.133 2°55.407 -999 3.056524 28.53807 12.163161
2006-04-10 07:34:15 51°14.145 2°55.398 -999 3.061593 28.594794 12.23058
2006-04-10 07:34:20 51°14.156 2°55.388 -999 3.069558 28.679964 12.196871
2006-04-10 07:34:25 51°14.168 2°55.378 -999 3.076799 28.755473 12.196871
2006-04-10 07:34:30 51°14.179 2°55.368 -999 3.085903 28.849503 12.196871
2006-04-10 07:34:34 51°14.188 2°55.359 -999 3.099144 28.984099 12.163161
2006-04-10 07:34:40 51°14.201 2°55.345 -999 3.099144 28.984099 12.163161
2006-04-10 07:34:45 51°14.212 2°55.332 -999 3.110628 29.099068 12.129452
2006-04-10 07:34:50 51°14.222 2°55.32 -999 3.123973 29.235608 12.163161
2006-04-10 07:34:55 51°14.232 2°55.307 -999 3.135457 29.353703 12.129452
2006-04-10 07:35:00 51°14.242 2°55.293 -999 3.140009 29.400834 12.095742
2006-04-10 07:35:05 51°14.251 2°55.278 -999 3.142079 29.42226 12.095742
2006-04-10 07:35:10 51°14.261 2°55.262 -999 3.142079 29.42226 12.095742
2006-04-10 07:35:15 51°14.27 2°55.245 -999 3.143631 29.439093 12.028324
2006-04-10 07:35:20 51°14.278 2°55.229 -999 3.141872 29.422401 11.994614
2006-04-10 07:35:25 51°14.288 2°55.212 -999 3.139285 29.40018 11.994614
2006-04-10 07:35:30 51°14.297 2°55.196 -999 3.14808 29.493565 12.028324
2006-04-10 07:35:35 51°14.307 2°55.179 -999 3.156874 29.58777 12.062033
2006-04-10 07:35:40 51°14.316 2°55.162 -999 3.156874 29.58777 12.062033
2006-04-10 07:35:45 51°14.326 2°55.144 -999 3.161323 29.638499 12.095742
2006-04-10 07:35:50 51°14.334 2°55.127 -999 3.1696 29.729744 12.163161
2006-04-10 07:35:54 51°14.341 2°55.113 -999 3.172808 29.766882 12.196871
2006-04-10 07:36:00 51°14.353 2°55.09 -999 3.177154 29.816625 12.297999
2006-04-10 07:36:05 51°14.361 2°55.074 -999 3.18719 29.934042 12.432836
2006-04-10 07:36:10 51°14.372 2°55.057 -999 3.18719 29.934042 12.432836
2006-04-10 07:36:14 51°14.379 2°55.045 -999 3.198366 30.069691 12.533965
2006-04-10 07:36:18 51°14.387 2°55.031 -999 3.204264 30.149052 12.635093
2006-04-10 07:36:24 51°14.398 2°55.012 -999 3.208196 30.202546 12.668802
2006-04-10 07:36:30 51°14.411 2°54.991 -999 3.213887 30.26893 12.702512
2006-04-10 07:36:34 51°14.419 2°54.978 -999 3.221648 30.358527 12.837349
2006-04-10 07:36:38 51°14.427 2°54.965 -999 3.221648 30.358527 12.837349
2006-04-10 07:36:44 51°14.44 2°54.946 -999 3.227547 30.433509 12.904768
2006-04-10 07:36:50 51°14.454 2°54.927 -999 3.230238 30.478237 12.972187
2006-04-10 07:36:54 51°14.463 2°54.916 -999 3.236136 30.551785 13.039606
2006-04-10 07:37:00 51°14.477 2°54.898 -999 3.24307 30.637031 13.208153
2006-04-10 07:37:04 51°14.487 2°54.887 -999 3.2499 30.728494 13.34299
2006-04-10 07:37:10 51°14.501 2°54.871 -999 3.2499 30.728494 13.34299
2006-04-10 07:37:14 51°14.511 2°54.859 -999 3.256627 30.819822 13.410409
2006-04-10 07:37:20 51°14.527 2°54.842 -999 3.259835 30.870356 13.477828
2006-04-10 07:37:24 51°14.537 2°54.83 -999 3.2677 30.971458 13.511537
2006-04-10 07:37:29 51°14.551 2°54.815 -999 3.266355 30.972699 13.578956
2006-04-10 07:37:34 51°14.565 2°54.8 -999 3.270081 31.024805 13.612665
2006-04-10 07:37:40 51°14.581 2°54.782 -999 3.270081 31.024805 13.612665
2006-04-10 07:37:44 51°14.592 2°54.77 -999 3.276498 31.106074 13.713794
2006-04-10 07:37:50 51°14.609 2°54.75 -999 3.276808 31.122362 13.814922
2006-04-10 07:37:54 51°14.619 2°54.737 -999 3.281673 31.186607 13.882341
2006-04-10 07:38:00 51°14.636 2°54.719 -999 3.27805 31.154994 13.91605
2006-04-10 07:38:04 51°14.647 2°54.705 -999 3.280017 31.178966 13.91605
2006-04-10 07:38:09 51°14.662 2°54.69 -999 3.280017 31.178966 13.91605
2006-04-10 07:38:14 51°14.675 2°54.675 -999 3.271427 31.089331 14.017178
2006-04-10 07:38:19 51°14.69 2°54.659 -999 3.274428 31.12093 14.084597
2006-04-10 07:38:25 51°14.706 2°54.641 -999 3.278568 31.168604 14.050888
2006-04-10 07:38:30 51°14.72 2°54.626 -999 3.271427 31.09666 14.017178
2006-04-10 07:38:34 51°14.731 2°54.614 -999 3.277637 31.164507 13.91605
2006-04-10 07:38:40 51°14.749 2°54.594 -999 3.277637 31.164507 13.91605
2006-04-10 07:38:44 51°14.76 2°54.582 -999 3.277533 31.167499 13.848631
2006-04-10 07:38:50 51°14.775 2°54.565 -999 3.278775 31.183034 13.781212
2006-04-10 07:38:55 51°14.791 2°54.549 -999 3.283018 31.228568 13.781212
2006-04-10 07:39:00 51°14.805 2°54.535 -999 3.28426 31.244932 13.713794
2006-04-10 07:39:04 51°14.815 2°54.522 -999 3.284571 31.250662 13.680084
2006-04-10 07:39:10 51°14.833 2°54.504 -999 3.284571 31.250662 13.680084
2006-04-10 07:39:14 51°14.844 2°54.492 -999 3.286123 31.267848 13.713794
2006-04-10 07:39:18 51°14.855 2°54.48 -999 3.287469 31.282033 13.781212
2006-04-10 07:39:24 51°14.872 2°54.46 -999 3.287572 31.282305 13.882341
2006-04-10 07:39:30 51°14.889 2°54.441 -999 3.283536 31.239752 13.949759
2006-04-10 07:39:34 51°14.9 2°54.428 -999 3.280845 31.209752 14.017178
2006-04-10 07:39:40 51°14.916 2°54.409 -999 3.280845 31.209752 14.017178
2006-04-10 07:39:44 51°14.928 2°54.397 -999 3.279914 31.199935 14.050888
2006-04-10 07:39:50 51°14.944 2°54.379 -999 3.281777 31.222024 14.050888
2006-04-10 07:39:54 51°14.956 2°54.367 -999 3.280742 31.210297 14.084597
2006-04-10 07:40:00 51°14.973 2°54.347 -999 3.280017 31.202661 14.118306
2006-04-10 07:40:04 51°14.984 2°54.334 -999 3.281363 31.215206 14.152016
2006-04-10 07:40:10 51°15 2°54.316 -999 3.281363 31.215206 14.152016
2006-04-10 07:40:14 51°15.011 2°54.303 -999 3.277326 31.171035 14.286853
2006-04-10 07:40:20 51°15.029 2°54.284 -999 3.277533 31.171582 14.421691
2006-04-10 07:40:25 51°15.042 2°54.27 -999 3.274532 31.141592 14.4554
2006-04-10 07:40:30 51°15.055 2°54.255 -999 3.277119 31.168037 14.421691
2006-04-10 07:40:35 51°15.069 2°54.239 -999 3.279396 31.192847 14.354272
2006-04-10 07:40:40 51°15.083 2°54.224 -999 3.279396 31.192847 14.354272
2006-04-10 07:40:45 51°15.097 2°54.208 -999 3.281673 31.216843 14.219435
2006-04-10 07:40:50 51°15.111 2°54.192 -999 3.281466 31.211389 14.084597
2006-04-10 07:40:54 51°15.123 2°54.18 -999 3.28395 31.235111 14.017178
2006-04-10 07:40:59 51°15.136 2°54.165 -999 3.288296 31.276009 14.017178
2006-04-10 07:41:04 51°15.151 2°54.15 -999 3.291194 31.302452 13.983469
2006-04-10 07:41:10 51°15.168 2°54.131 -999 3.291194 31.302452 13.983469
2006-04-10 07:41:14 51°15.18 2°54.12 -999 3.29285 31.314164 13.949759
2006-04-10 07:41:20 51°15.197 2°54.102 -999 3.295955 31.342782 13.882341
2006-04-10 07:41:24 51°15.208 2°54.09 -999 3.29906 31.370576 13.781212
2006-04-10 07:41:30 51°15.225 2°54.072 -999 3.301958 31.396185 13.713794
2006-04-10 07:41:35 51°15.239 2°54.057 -999 3.304338 31.414693 13.680084
2006-04-10 07:41:40 51°15.254 2°54.041 -999 3.304338 31.414693 13.680084
2006-04-10 07:41:44 51°15.265 2°54.03 -999 3.30765 31.44301 13.646375
2006-04-10 07:41:50 51°15.282 2°54.011 -999 3.312928 31.491215 13.646375
2006-04-10 07:41:54 51°15.294 2°53.999 -999 3.317172 31.528508 13.612665
2006-04-10 07:42:00 51°15.311 2°53.981 -999 3.319449 31.5459 13.612665
2006-04-10 07:42:05 51°15.326 2°53.966 -999 3.323899 31.586183 13.578956
2006-04-10 07:42:10 51°15.34 2°53.952 -999 3.323899 31.586183 13.578956
2006-04-10 07:42:14 51°15.352 2°53.941 -999 3.32835 31.628112 13.477828
2006-04-10 07:42:20 51°15.369 2°53.923 -999 3.334042 31.682296 13.3767
2006-04-10 07:42:25 51°15.384 2°53.909 -999 3.337147 31.709213 13.241862
2006-04-10 07:42:30 51°15.398 2°53.894 -999 3.343875 31.775953 13.073315
2006-04-10 07:42:34 51°15.41 2°53.881 -999 3.348222 31.81761 12.904768
2006-04-10 07:42:40 51°15.426 2°53.863 -999 3.348222 31.81761 12.904768
2006-04-10 07:42:45 51°15.44 2°53.847 -999 3.352363 31.857915 12.668802
2006-04-10 07:42:50 51°15.454 2°53.83 -999 3.357228 31.907524 12.533965
2006-04-10 07:42:54 51°15.464 2°53.817 -999 3.363438 31.973831 12.432836
2006-04-10 07:43:00 51°15.48 2°53.798 -999 3.366233 32.00748 12.331708
2006-04-10 07:43:04 51°15.492 2°53.784 -999 3.366751 32.01712 12.297999
2006-04-10 07:43:10 51°15.507 2°53.765 -999 3.366751 32.01712 12.297999
2006-04-10 07:43:14 51°15.519 2°53.753 -999 3.365302 32.005179 12.331708
2006-04-10 07:43:20 51°15.536 2°53.735 -999 3.363128 31.986429 12.365418
2006-04-10 07:43:24 51°15.547 2°53.723 -999 3.359091 31.948022 12.432836
2006-04-10 07:43:30 51°15.564 2°53.705 -999 3.354226 31.900879 12.533965
2006-04-10 07:43:34 51°15.575 2°53.694 -999 3.349051 31.849628 12.635093
2006-04-10 07:43:40 51°15.591 2°53.676 -999 3.349051 31.849628 12.635093
2006-04-10 07:43:45 51°15.606 2°53.662 -999 3.337665 31.736222 12.80364
2006-04-10 07:43:50 51°15.62 2°53.647 -999 3.328039 31.642207 12.938477
2006-04-10 07:43:54 51°15.632 2°53.635 -999 3.318828 31.554207 13.073315
2006-04-10 07:44:00 51°15.648 2°53.619 -999 3.307546 31.446033 13.174443
2006-04-10 07:44:04 51°15.66 2°53.608 -999 3.304959 31.422881 13.275571
2006-04-10 07:44:09 51°15.675 2°53.594 -999 3.304959 31.422881 13.275571
2006-04-10 07:44:15 51°15.691 2°53.578 -999 3.294299 31.317133 13.34299
2006-04-10 07:44:20 51°15.707 2°53.564 -999 3.290573 31.282799 13.410409
2006-04-10 07:44:24 51°15.718 2°53.552 -999 3.285709 31.234015 13.410409
2006-04-10 07:44:30 51°15.735 2°53.537 -999 3.281569 31.190416 13.477828
2006-04-10 07:44:34 51°15.746 2°53.525 -999 3.280948 31.186326 13.511537
2006-04-10 07:44:40 51°15.764 2°53.507 -999 3.280948 31.186326 13.511537
2006-04-10 07:44:44 51°15.775 2°53.495 -999 3.277119 31.146818 13.545247
2006-04-10 07:44:50 51°15.793 2°53.479 -999 3.276912 31.143823 13.646375
2006-04-10 07:44:54 51°15.804 2°53.468 -999 3.276809 31.141102 13.713794
2006-04-10 07:45:00 51°15.822 2°53.452 -999 3.277016 31.143282 13.814922
2006-04-10 07:45:04 51°15.834 2°53.441 -999 3.277636 31.150635 13.91605
2006-04-10 07:45:10 51°15.852 2°53.426 -999 3.277636 31.150635 13.91605
2006-04-10 07:45:14 51°15.863 2°53.416 -999 3.279292 31.165624 14.050888
2006-04-10 07:45:18 51°15.875 2°53.405 -999 3.279913 31.171346 14.185725
2006-04-10 07:45:25 51°15.897 2°53.385 -999 3.278361 31.152554 14.421691
2006-04-10 07:45:30 51°15.911 2°53.372 -999 3.279396 31.16345 14.387982
2006-04-10 07:45:34 51°15.922 2°53.361 -999 3.282501 31.194508 14.286853
2006-04-10 07:45:39 51°15.937 2°53.348 -999 3.282501 31.194508 14.286853
2006-04-10 07:45:44 51°15.952 2°53.334 -999 3.282915 31.198867 14.152016
2006-04-10 07:45:50 51°15.97 2°53.319 -999 3.283535 31.202955 13.983469
2006-04-10 07:45:54 51°15.982 2°53.308 -999 3.286226 31.227203 13.848631
2006-04-10 07:46:00 51°15.999 2°53.294 -999 3.29285 31.293678 13.747503
2006-04-10 07:46:04 51°16.011 2°53.283 -999 3.292746 31.289313 13.612665
2006-04-10 07:46:10 51°16.03 2°53.266 -999 3.292746 31.289313 13.612665
2006-04-10 07:46:14 51°16.043 2°53.256 -999 3.295955 31.320641 13.477828
2006-04-10 07:46:20 51°16.059 2°53.241 -999 3.299059 31.350879 13.3767
2006-04-10 07:46:24 51°16.072 2°53.231 -999 3.307029 31.431533 13.275571
2006-04-10 07:46:30 51°16.089 2°53.214 -999 3.308064 31.439146 13.208153
2006-04-10 07:46:34 51°16.101 2°53.204 -999 3.313032 31.486541 13.140734
2006-04-10 07:46:40 51°16.118 2°53.189 -999 3.313032 31.486541 13.140734
2006-04-10 07:46:44 51°16.13 2°53.179 -999 3.314791 31.500134 13.039606
2006-04-10 07:46:50 51°16.147 2°53.163 -999 3.32007 31.552442 12.938477
2006-04-10 07:46:54 51°16.159 2°53.152 -999 3.327315 31.627127 12.904768
2006-04-10 07:47:00 51°16.176 2°53.136 -999 3.330109 31.654095 12.871059
2006-04-10 07:47:05 51°16.19 2°53.123 -999 3.33487 31.704275 12.904768
2006-04-10 07:47:10 51°16.205 2°53.11 -999 3.33487 31.704275 12.904768
2006-04-10 07:47:14 51°16.216 2°53.1 -999 3.340046 31.758831 12.972187
2006-04-10 07:47:20 51°16.235 2°53.084 -999 3.343254 31.792663 13.039606
2006-04-10 07:47:25 51°16.249 2°53.071 -999 3.343254 31.792663 13.140734
2006-04-10 07:47:30 51°16.264 2°53.058 -999 3.342323 31.78284 13.241862
2006-04-10 07:47:34 51°16.275 2°53.049 -999 3.344703 31.810438 13.34299
2006-04-10 07:47:39 51°16.29 2°53.036 -999 3.344703 31.810438 13.34299
2006-04-10 07:47:44 51°16.304 2°53.025 -999 3.339321 31.758665 13.511537
2006-04-10 07:47:50 51°16.323 2°53.01 -999 3.338079 31.751379 13.612665
2006-04-10 07:47:54 51°16.334 2°53 -999 3.334767 31.720598 13.713794
2006-04-10 07:48:00 51°16.352 2°52.984 -999 3.33425 31.720119 13.781212
2006-04-10 07:48:04 51°16.363 2°52.974 -999 3.33249 31.706537 13.848631
2006-04-10 07:48:10 51°16.382 2°52.958 -999 3.33249 31.706537 13.848631
2006-04-10 07:48:14 51°16.393 2°52.949 -999 3.330524 31.688281 13.882341
2006-04-10 07:48:20 51°16.41 2°52.934 -999 3.330834 31.694044 13.91605
2006-04-10 07:48:25 51°16.425 2°52.922 -999 3.331248 31.698412 13.949759
2006-04-10 07:48:30 51°16.439 2°52.909 -999 3.332904 31.713394 14.017178
2006-04-10 07:48:34 51°16.451 2°52.899 -999 3.332387 31.706275 14.084597
2006-04-10 07:48:40 51°16.469 2°52.885 -999 3.332387 31.706275 14.084597
2006-04-10 07:48:44 51°16.481 2°52.875 -999 3.33249 31.708196 14.185725
2006-04-10 07:48:49 51°16.497 2°52.863 -999 3.334043 31.727066 14.253144
2006-04-10 07:48:54 51°16.511 2°52.851 -999 3.334871 31.734141 14.320563
2006-04-10 07:49:00 51°16.529 2°52.839 -999 3.335906 31.744231 14.387982
2006-04-10 07:49:05 51°16.545 2°52.827 -999 3.340046 31.786254 14.4554
2006-04-10 07:49:10 51°16.56 2°52.817 -999 3.340046 31.786254 14.4554
2006-04-10 07:49:14 51°16.573 2°52.808 -999 3.339839 31.780743 14.48911
2006-04-10 07:49:19 51°16.587 2°52.797 -999 3.343255 31.812624 14.522819
2006-04-10 07:49:25 51°16.605 2°52.785 -999 3.343876 31.815847 14.590238
2006-04-10 07:49:30 51°16.621 2°52.774 -999 3.344807 31.824011 14.691366
2006-04-10 07:49:34 51°16.634 2°52.766 -999 3.345842 31.833266 14.758785
2006-04-10 07:49:40 51°16.652 2°52.754 -999 3.345842 31.833266 14.758785
2006-04-10 07:49:45 51°16.667 2°52.745 -999 3.34667 31.84117 14.893623
2006-04-10 07:49:50 51°16.684 2°52.735 -999 3.348119 31.855626 15.02846
2006-04-10 07:49:55 51°16.699 2°52.727 -999 3.349051 31.864621 15.129589
2006-04-10 07:50:00 51°16.714 2°52.718 -999 3.34874 31.861345 15.298136
2006-04-10 07:50:05 51°16.73 2°52.709 -999 3.34874 31.861345 15.399264
2006-04-10 07:50:10 51°16.746 2°52.7 -999 3.34874 31.861345 15.399264
2006-04-10 07:50:14 51°16.758 2°52.692 -999 3.348119 31.854793 15.466683
2006-04-10 07:50:20 51°16.776 2°52.681 -999 3.348326 31.85781 15.500392
2006-04-10 07:50:24 51°16.788 2°52.674 -999 3.348533 31.861661 15.63523
2006-04-10 07:50:30 51°16.808 2°52.664 -999 3.348223 31.860051 15.736358
2006-04-10 07:50:34 51°16.821 2°52.659 -999 3.349258 31.872641 15.837486
2006-04-10 07:50:40 51°16.839 2°52.651 -999 3.349258 31.872641 15.837486
2006-04-10 07:50:44 51°16.851 2°52.647 -999 3.347809 31.858182 15.938614
2006-04-10 07:50:50 51°16.869 2°52.64 -999 3.347084 31.850536 15.938614
2006-04-10 07:50:55 51°16.885 2°52.635 -999 3.348223 31.864218 15.972324
2006-04-10 07:51:00 51°16.902 2°52.631 -999 3.347188 31.854128 15.972324
2006-04-10 07:51:05 51°16.917 2°52.626 -999 3.348637 31.871089 16.006033
2006-04-10 07:51:10 51°16.934 2°52.621 -999 3.348637 31.871089 16.006033
2006-04-10 07:51:14 51°16.947 2°52.618 -999 3.348016 31.867036 16.073452
2006-04-10 07:51:20 51°16.966 2°52.613 -999 3.34843 31.874742 16.107161
2006-04-10 07:51:24 51°16.979 2°52.609 -999 3.345946 31.851854 16.107161
2006-04-10 07:51:29 51°16.994 2°52.605 -999 3.345014 31.84452 16.241999
2006-04-10 07:51:34 51°17.012 2°52.601 -999 3.345325 31.851967 16.410546
2006-04-10 07:51:40 51°17.03 2°52.595 -999 3.345325 31.851967 16.410546
2006-04-10 07:51:44 51°17.042 2°52.592 -999 3.343462 31.837297 16.511674
2006-04-10 07:51:50 51°17.062 2°52.586 -999 3.34222 31.828349 16.74764
2006-04-10 07:51:55 51°17.079 2°52.581 -999 3.340667 31.816953 16.983606
2006-04-10 07:52:00 51°17.094 2°52.578 -999 3.339115 31.807222 17.118443
2006-04-10 07:52:05 51°17.11 2°52.572 -999 3.337873 31.800768 17.28699
2006-04-10 07:52:10 51°17.126 2°52.569 -999 3.337873 31.800768 17.28699
2006-04-10 07:52:14 51°17.139 2°52.565 -999 3.338287 31.812643 17.421828
2006-04-10 07:52:19 51°17.154 2°52.561 -999 3.337045 31.807856 17.489247
2006-04-10 07:52:25 51°17.174 2°52.556 -999 3.335596 31.799211 17.725212
2006-04-10 07:52:30 51°17.19 2°52.553 -999 3.335182 31.799838 17.86005
2006-04-10 07:52:34 51°17.203 2°52.55 -999 3.333319 31.784311 17.961178
2006-04-10 07:52:40 51°17.222 2°52.546 -999 3.333319 31.784311 17.961178
2006-04-10 07:52:44 51°17.234 2°52.543 -999 3.332802 31.784675 18.163435
2006-04-10 07:52:50 51°17.254 2°52.539 -999 3.33363 31.798437 18.230853
2006-04-10 07:52:55 51°17.269 2°52.536 -999 3.332284 31.787543 18.298272
2006-04-10 07:53:00 51°17.285 2°52.533 -999 3.333216 31.802403 18.298272
2006-04-10 07:53:05 51°17.301 2°52.529 -999 3.33187 31.792342 18.3994
2006-04-10 07:53:10 51°17.317 2°52.525 -999 3.33187 31.792342 18.3994
2006-04-10 07:53:14 51°17.33 2°52.523 -999 3.332595 31.803347 18.466819
2006-04-10 07:53:20 51°17.349 2°52.518 -999 3.332802 31.807207 18.43311
2006-04-10 07:53:25 51°17.365 2°52.514 -999 3.332802 31.810548 18.365691
2006-04-10 07:53:30 51°17.381 2°52.51 -999 3.333423 31.822134 18.298272
2006-04-10 07:53:35 51°17.398 2°52.506 -999 3.332284 31.815933 18.129725
2006-04-10 07:53:40 51°17.413 2°52.503 -999 3.332284 31.815933 18.129725
2006-04-10 07:53:45 51°17.43 2°52.5 -999 3.330628 31.806758 17.927469
2006-04-10 07:53:50 51°17.446 2°52.496 -999 3.329801 31.806348 17.758922
2006-04-10 07:53:54 51°17.459 2°52.493 -999 3.330318 31.820193 17.590375
2006-04-10 07:53:59 51°17.475 2°52.489 -999 3.328973 31.812631 17.421828
2006-04-10 07:54:04 51°17.491 2°52.487 -999 3.328352 31.811907 17.253281
2006-04-10 07:54:10 51°17.509 2°52.484 -999 3.328352 31.811907 17.253281
2006-04-10 07:54:14 51°17.522 2°52.482 -999 3.330215 31.840026 17.219571
2006-04-10 07:54:20 51°17.542 2°52.479 -999 3.328145 31.824782 17.185862
2006-04-10 07:54:25 51°17.557 2°52.478 -999 3.326903 31.814964 16.983606
2006-04-10 07:54:30 51°17.574 2°52.475 -999 3.326799 31.817216 16.848768
2006-04-10 07:54:34 51°17.587 2°52.473 -999 3.328352 31.838708 16.680221
2006-04-10 07:54:40 51°17.606 2°52.471 -999 3.328352 31.838708 16.680221
2006-04-10 07:54:44 51°17.619 2°52.47 -999 3.324937 31.806672 16.477965
2006-04-10 07:54:50 51°17.639 2°52.47 -999 3.325144 31.813894 16.241999
2006-04-10 07:54:54 51°17.652 2°52.469 -999 3.323902 31.804908 16.006033
2006-04-10 07:55:00 51°17.671 2°52.468 -999 3.324005 31.810195 15.803777
2006-04-10 07:55:04 51°17.685 2°52.468 -999 3.322867 31.80063 15.60152
2006-04-10 07:55:10 51°17.704 2°52.467 -999 3.322867 31.80063 15.60152
2006-04-10 07:55:15 51°17.72 2°52.467 -999 3.322556 31.799849 15.432973
2006-04-10 07:55:20 51°17.737 2°52.467 -999 3.322763 31.804559 15.298136
2006-04-10 07:55:24 51°17.75 2°52.466 -999 3.321107 31.788662 15.197007
2006-04-10 07:55:29 51°17.766 2°52.467 -999 3.3209 31.786465 15.095879
2006-04-10 07:55:35 51°17.786 2°52.466 -999 3.32059 31.78317 14.927332
2006-04-10 07:55:40 51°17.801 2°52.466 -999 3.32059 31.78317 14.927332
2006-04-10 07:55:45 51°17.818 2°52.467 -999 3.321211 31.790598 14.826204
2006-04-10 07:55:50 51°17.833 2°52.467 -999 3.321107 31.791175 14.725076
2006-04-10 07:55:54 51°17.847 2°52.467 -999 3.321521 31.795569 14.691366
2006-04-10 07:56:00 51°17.867 2°52.468 -999 3.323177 31.813144 14.725076
2006-04-10 07:56:04 51°17.878 2°52.47 -999 3.323177 31.811467 14.725076
2006-04-10 07:56:09 51°17.895 2°52.47 -999 3.323177 31.811467 14.725076
2006-04-10 07:56:14 51°17.911 2°52.471 -999 3.325765 31.83893 14.691366
2006-04-10 07:56:20 51°17.93 2°52.473 -999 3.326593 31.846879 14.725076
2006-04-10 07:56:25 51°17.946 2°52.475 -999 3.329077 31.872407 14.792494
2006-04-10 07:56:30 51°17.963 2°52.479 -999 3.327628 31.857026 14.826204
2006-04-10 07:56:34 51°17.975 2°52.482 -999 3.33094 31.892184 14.826204
2006-04-10 07:56:40 51°17.994 2°52.489 -999 3.33094 31.892184 14.826204
2006-04-10 07:56:45 51°18.01 2°52.494 -999 3.330008 31.881455 14.792494
2006-04-10 07:56:50 51°18.025 2°52.503 -999 3.33094 31.889663 14.758785
2006-04-10 07:56:54 51°18.037 2°52.51 -999 3.33301 31.912479 14.691366
2006-04-10 07:57:00 51°18.055 2°52.523 -999 3.333631 31.919913 14.691366
2006-04-10 07:57:05 51°18.069 2°52.534 -999 3.333114 31.914419 14.691366
2006-04-10 07:57:10 51°18.083 2°52.547 -999 3.333114 31.914419 14.691366
2006-04-10 07:57:15 51°18.096 2°52.562 -999 3.334252 31.925665 14.657657
2006-04-10 07:57:20 51°18.11 2°52.577 -999 3.334356 31.928447 14.590238
2006-04-10 07:57:24 51°18.119 2°52.589 -999 3.334873 31.935625 14.556529
2006-04-10 07:57:30 51°18.135 2°52.61 -999 3.334563 31.931486 14.522819
2006-04-10 07:57:34 51°18.144 2°52.623 -999 3.33508 31.937823 14.48911
2006-04-10 07:57:40 51°18.16 2°52.642 -999 3.33508 31.937823 14.48911
2006-04-10 07:57:44 51°18.169 2°52.656 -999 3.334873 31.93815 14.48911
2006-04-10 07:57:50 51°18.184 2°52.676 -999 3.334873 31.939834 14.48911
2006-04-10 07:57:54 51°18.193 2°52.69 -999 3.33477 31.939576 14.522819
2006-04-10 07:58:00 51°18.206 2°52.712 -999 3.334666 31.940161 14.522819
2006-04-10 07:58:05 51°18.218 2°52.733 -999 3.334666 31.941003 14.48911
2006-04-10 07:58:10 51°18.229 2°52.75 -999 3.334666 31.941003 14.48911
2006-04-10 07:58:15 51°18.24 2°52.769 -999 3.338082 31.978969 14.48911
2006-04-10 07:58:20 51°18.248 2°52.79 -999 3.336115 31.959764 14.48911
2006-04-10 07:58:25 51°18.258 2°52.812 -999 3.333735 31.935319 14.4554
2006-04-10 07:58:30 51°18.269 2°52.832 -999 3.333528 31.934804 14.48911
2006-04-10 07:58:34 51°18.276 2°52.85 -999 3.333735 31.938687 14.48911
2006-04-10 07:58:40 51°18.286 2°52.876 -999 3.333735 31.938687 14.48911
2006-04-10 07:58:45 51°18.293 2°52.9 -999 3.334459 31.948069 14.421691
2006-04-10 07:58:50 51°18.302 2°52.923 -999 3.333631 31.941799 14.387982
2006-04-10 07:58:54 51°18.306 2°52.943 -999 3.334356 31.949497 14.320563
2006-04-10 07:58:58 51°18.312 2°52.96 -999 3.33301 31.936043 14.286853
2006-04-10 07:59:04 51°18.319 2°52.99 -999 3.332286 31.929188 14.286853
2006-04-10 07:59:10 51°18.325 2°53.02 -999 3.332286 31.929188 14.286853
2006-04-10 07:59:14 51°18.33 2°53.04 -999 3.332182 31.92893 14.286853
2006-04-10 07:59:20 51°18.336 2°53.069 -999 3.3327 31.933586 14.320563
2006-04-10 07:59:25 51°18.342 2°53.094 -999 3.334459 31.953967 14.354272
2006-04-10 07:59:30 51°18.348 2°53.119 -999 3.332803 31.936371 14.387982
2006-04-10 07:59:34 51°18.353 2°53.138 -999 3.332079 31.932041 14.387982
2006-04-10 07:59:40 51°18.359 2°53.169 -999 3.332079 31.932041 14.387982
2006-04-10 07:59:44 51°18.364 2°53.187 -999 3.331561 31.928227 14.421691
2006-04-10 07:59:48 51°18.368 2°53.207 -999 3.331458 31.926285 14.421691
2006-04-10 07:59:54 51°18.375 2°53.237 -999 3.330526 31.917229 14.387982
2006-04-10 08:00:00 51°18.381 2°53.267 -999 3.331354 31.926869 14.387982
2006-04-10 08:00:05 51°18.387 2°53.291 -999 3.330319 31.918397 14.387982
2006-04-10 08:00:10 51°18.393 2°53.314 -999 3.330319 31.918397 14.387982
2006-04-10 08:00:14 51°18.397 2°53.334 -999 3.329181 31.907982 14.387982
2006-04-10 08:00:20 51°18.405 2°53.362 -999 3.329284 31.909082 14.354272
2006-04-10 08:00:24 51°18.411 2°53.382 -999 3.327732 31.894267 14.387982
2006-04-10 08:00:30 51°18.419 2°53.41 -999 3.325351 31.868972 14.387982
2006-04-10 08:00:34 51°18.424 2°53.429 -999 3.326283 31.879711 14.387982
2006-04-10 08:00:40 51°18.432 2°53.458 -999 3.326283 31.879711 14.387982
2006-04-10 08:00:45 51°18.44 2°53.482 -999 3.322971 31.845359 14.387982
2006-04-10 08:00:50 51°18.447 2°53.506 -999 3.321936 31.836043 14.354272
2006-04-10 08:00:54 51°18.453 2°53.525 -999 3.324627 31.865477 14.320563
2006-04-10 08:01:00 51°18.461 2°53.554 -999 3.319245 31.808292 14.320563
2006-04-10 08:01:04 51°18.467 2°53.573 -999 3.318417 31.798657 14.320563
2006-04-10 08:01:10 51°18.474 2°53.601 -999 3.318417 31.798657 14.320563
2006-04-10 08:01:15 51°18.481 2°53.626 -999 3.317278 31.785724 14.320563
2006-04-10 08:01:18 51°18.485 2°53.641 -999 3.317278 31.784046 14.286853
2006-04-10 08:01:24 51°18.493 2°53.669 -999 3.316657 31.776612 14.320563
2006-04-10 08:01:30 51°18.501 2°53.698 -999 3.315933 31.767241 14.354272
2006-04-10 08:01:34 51°18.507 2°53.717 -999 3.315208 31.759547 14.387982
2006-04-10 08:01:40 51°18.515 2°53.745 -999 3.315208 31.759547 14.387982
2006-04-10 08:01:44 51°18.52 2°53.765 -999 3.315208 31.761222 14.387982
2006-04-10 08:01:50 51°18.528 2°53.795 -999 3.313656 31.74641 14.387982
2006-04-10 08:01:54 51°18.533 2°53.813 -999 3.313759 31.748347 14.387982
2006-04-10 08:02:00 51°18.542 2°53.841 -999 3.31407 31.752482 14.387982
2006-04-10 08:02:04 51°18.547 2°53.86 -999 3.31407 31.752482 14.387982
2006-04-10 08:02:10 51°18.556 2°53.89 -999 3.31407 31.752482 14.387982
2006-04-10 08:02:14 51°18.561 2°53.909 -999 3.312207 31.733534 14.387982
2006-04-10 08:02:20 51°18.57 2°53.937 -999 3.313759 31.750022 14.421691
2006-04-10 08:02:24 51°18.575 2°53.957 -999 3.311379 31.726415 14.4554
2006-04-10 08:02:30 51°18.584 2°53.984 -999 3.312621 31.738768 14.4554
2006-04-10 08:02:34 51°18.589 2°54.004 -999 3.310758 31.720657 14.4554
2006-04-10 08:02:40 51°18.597 2°54.031 -999 3.310758 31.720657 14.4554
2006-04-10 08:02:45 51°18.604 2°54.055 -999 3.311793 31.733324 14.48911
2006-04-10 08:02:50 51°18.611 2°54.08 -999 3.312103 31.735784 14.48911
2006-04-10 08:02:54 51°18.617 2°54.099 -999 3.309412 31.709715 14.48911
2006-04-10 08:03:00 51°18.626 2°54.126 -999 3.307963 31.697672 14.522819
2006-04-10 08:03:05 51°18.632 2°54.15 -999 3.310551 31.726831 14.522819
2006-04-10 08:03:10 51°18.639 2°54.174 -999 3.310551 31.726831 14.522819
2006-04-10 08:03:14 51°18.644 2°54.193 -999 3.308377 31.705417 14.522819
2006-04-10 08:03:20 51°18.652 2°54.22 -999 3.305169 31.673845 14.556529
2006-04-10 08:03:25 51°18.659 2°54.244 -999 3.304444 31.668658 14.522819
2006-04-10 08:03:30 51°18.666 2°54.268 -999 3.303927 31.663997 14.556529
2006-04-10 08:03:35 51°18.672 2°54.292 -999 3.303202 31.657973 14.556529
2006-04-10 08:03:38 51°18.677 2°54.305 -999 3.303202 31.657973 14.556529
2006-04-10 08:03:44 51°18.686 2°54.334 -999 3.301857 31.647024 14.556529
2006-04-10 08:03:50 51°18.693 2°54.361 -999 3.30134 31.642362 14.556529
2006-04-10 08:03:54 51°18.698 2°54.381 -999 3.298545 31.614348 14.522819
2006-04-10 08:04:00 51°18.707 2°54.41 -999 3.297614 31.606958 14.556529
2006-04-10 08:04:05 51°18.714 2°54.434 -999 3.295337 31.585275 14.556529
2006-04-10 08:04:10 51°18.722 2°54.457 -999 3.295337 31.585275 14.556529
2006-04-10 08:04:15 51°18.729 2°54.48 -999 3.294405 31.578717 14.556529
2006-04-10 08:04:20 51°18.736 2°54.503 -999 3.291922 31.555666 14.556529
2006-04-10 08:04:24 51°18.742 2°54.523 -999 3.290266 31.541409 14.590238
2006-04-10 08:04:30 51°18.751 2°54.551 -999 3.289127 31.530148 14.590238
2006-04-10 08:04:34 51°18.757 2°54.569 -999 3.290576 31.548875 14.556529
2006-04-10 08:04:40 51°18.767 2°54.596 -999 3.290576 31.548875 14.556529
2006-04-10 08:04:44 51°18.772 2°54.615 -999 3.289127 31.535148 14.522819
2006-04-10 08:04:49 51°18.779 2°54.639 -999 3.286437 31.508225 14.522819
2006-04-10 08:04:54 51°18.785 2°54.662 -999 3.28416 31.484036 14.48911
2006-04-10 08:05:00 51°18.792 2°54.693 -999 3.283125 31.473874 14.522819
2006-04-10 08:05:04 51°18.798 2°54.711 -999 3.281986 31.462613 14.522819
2006-04-10 08:05:10 51°18.805 2°54.739 -999 3.281986 31.462613 14.522819
2006-04-10 08:05:14 51°18.81 2°54.758 -999 3.280744 31.451083 14.522819
2006-04-10 08:05:20 51°18.817 2°54.788 -999 3.280641 31.450815 14.556529
2006-04-10 08:05:24 51°18.822 2°54.808 -999 3.278054 31.423333 14.556529
2006-04-10 08:05:30 51°18.829 2°54.836 -999 3.27795 31.423064 14.556529
2006-04-10 08:05:34 51°18.834 2°54.855 -999 3.275984 31.402179 14.590238
2006-04-10 08:05:40 51°18.841 2°54.884 -999 3.275984 31.402179 14.590238
2006-04-10 08:05:45 51°18.848 2°54.908 -999 3.276294 31.406307 14.590238
2006-04-10 08:05:50 51°18.854 2°54.933 -999 3.272983 31.371964 14.623947
2006-04-10 08:05:54 51°18.859 2°54.952 -999 3.272051 31.362902 14.657657
2006-04-10 08:06:00 51°18.867 2°54.981 -999 3.270913 31.351642 14.657657
2006-04-10 08:06:05 51°18.874 2°55.004 -999 3.269981 31.340922 14.691366
2006-04-10 08:06:10 51°18.879 2°55.03 -999 3.269981 31.340922 14.691366
2006-04-10 08:06:15 51°18.886 2°55.054 -999 3.270395 31.347804 14.725076
2006-04-10 08:06:20 51°18.892 2°55.077 -999 3.268119 31.324455 14.758785
2006-04-10 08:06:24 51°18.898 2°55.095 -999 3.26874 31.331877 14.758785
2006-04-10 08:06:30 51°18.906 2°55.125 -999 3.266566 31.309626 14.792494
2006-04-10 08:06:34 51°18.911 2°55.145 -999 3.267808 31.323642 14.859913
2006-04-10 08:06:40 51°18.918 2°55.174 -999 3.267808 31.323642 14.859913
2006-04-10 08:06:44 51°18.923 2°55.193 -999 3.270913 31.356615 14.859913
2006-04-10 08:06:50 51°18.93 2°55.22 -999 3.270706 31.354417 14.893623
2006-04-10 08:06:54 51°18.935 2°55.241 -999 3.272051 31.368707 14.927332
2006-04-10 08:07:00 51°18.943 2°55.269 -999 3.270602 31.354147 14.961042
2006-04-10 08:07:05 51°18.949 2°55.293 -999 3.266566 31.312938 14.994751
2006-04-10 08:07:10 51°18.957 2°55.317 -999 3.266566 31.312938 14.994751
2006-04-10 08:07:14 51°18.961 2°55.334 -999 3.264704 31.293156 15.06217
2006-04-10 08:07:20 51°18.967 2°55.364 -999 3.264083 31.286563 15.095879
2006-04-10 08:07:25 51°18.974 2°55.388 -999 3.264186 31.288489 15.129589
2006-04-10 08:07:30 51°18.981 2°55.41 -999 3.264911 31.297837 15.163298
2006-04-10 08:07:34 51°18.986 2°55.43 -999 3.263255 31.28108 15.197007
2006-04-10 08:07:40 51°18.994 2°55.459 -999 3.263255 31.28108 15.197007
2006-04-10 08:07:45 51°19 2°55.481 -999 3.265014 31.299764 15.230717
2006-04-10 08:07:50 51°19.006 2°55.506 -999 3.263669 31.284649 15.230717
2006-04-10 08:07:54 51°19.012 2°55.525 -999 3.262427 31.272288 15.230717
2006-04-10 08:08:00 51°19.019 2°55.553 -999 3.261806 31.267349 15.264426
2006-04-10 08:08:05 51°19.024 2°55.577 -999 3.260668 31.25526 15.230717
2006-04-10 08:08:10 51°19.031 2°55.602 -999 3.260668 31.25526 15.230717
2006-04-10 08:08:15 51°19.038 2°55.625 -999 3.26015 31.251419 15.230717
2006-04-10 08:08:18 51°19.041 2°55.639 -999 3.259115 31.24043 15.197007
2006-04-10 08:08:24 51°19.049 2°55.667 -999 3.258391 31.231912 15.230717
2006-04-10 08:08:30 51°19.057 2°55.696 -999 3.258494 31.233837 15.298136
2006-04-10 08:08:34 51°19.062 2°55.715 -999 3.257149 31.221204 15.264426
2006-04-10 08:08:40 51°19.069 2°55.743 -999 3.257149 31.221204 15.264426
2006-04-10 08:08:44 51°19.075 2°55.761 -999 3.257356 31.222575 15.264426
2006-04-10 08:08:50 51°19.083 2°55.789 -999 3.255907 31.207193 15.264426
2006-04-10 08:08:55 51°19.09 2°55.813 -999 3.25539 31.202524 15.264426
2006-04-10 08:09:00 51°19.096 2°55.837 -999 3.254251 31.191263 15.264426
2006-04-10 08:09:04 51°19.101 2°55.856 -999 3.252596 31.174509 15.264426
2006-04-10 08:09:08 51°19.107 2°55.874 -999 3.252596 31.174509 15.264426
2006-04-10 08:09:15 51°19.115 2°55.908 -999 3.251457 31.163249 15.298136
2006-04-10 08:09:20 51°19.122 2°55.932 -999 3.251147 31.160777 15.298136
2006-04-10 08:09:24 51°19.128 2°55.949 -999 3.250422 31.153087 15.331845
2006-04-10 08:09:30 51°19.136 2°55.977 -999 3.251768 31.168193 15.331845
2006-04-10 08:09:34 51°19.141 2°55.996 -999 3.249698 31.146221 15.331845
2006-04-10 08:09:40 51°19.149 2°56.023 -999 3.249698 31.146221 15.331845
2006-04-10 08:09:45 51°19.155 2°56.048 -999 3.247525 31.121505 15.365554
2006-04-10 08:09:50 51°19.163 2°56.071 -999 3.247939 31.125899 15.399264
2006-04-10 08:09:54 51°19.167 2°56.089 -999 3.248042 31.128644 15.365554
2006-04-10 08:10:00 51°19.175 2°56.117 -999 3.24649 31.114636 15.399264
2006-04-10 08:10:04 51°19.179 2°56.138 -999 3.245662 31.107494 15.399264
2006-04-10 08:10:08 51°19.185 2°56.156 -999 3.245662 31.107494 15.399264
2006-04-10 08:10:14 51°19.192 2°56.184 -999 3.247835 31.129741 15.399264
2006-04-10 08:10:20 51°19.2 2°56.211 -999 3.2468 31.118755 15.432973
2006-04-10 08:10:25 51°19.206 2°56.235 -999 3.245869 31.108868 15.432973
2006-04-10 08:10:30 51°19.213 2°56.259 -999 3.246697 31.117656 15.399264
2006-04-10 08:10:34 51°19.217 2°56.278 -999 3.244731 31.09843 15.432973
2006-04-10 08:10:40 51°19.225 2°56.305 -999 3.244731 31.09843 15.432973
2006-04-10 08:10:44 51°19.23 2°56.325 -999 3.243592 31.084702 15.399264
2006-04-10 08:10:50 51°19.238 2°56.354 -999 3.242765 31.075916 15.399264
2006-04-10 08:10:54 51°19.243 2°56.374 -999 3.241937 31.067129 15.365554
2006-04-10 08:11:00 51°19.251 2°56.4 -999 3.241523 31.062736 15.365554
2006-04-10 08:11:04 51°19.255 2°56.42 -999 3.240695 31.053128 15.399264
2006-04-10 08:11:10 51°19.263 2°56.449 -999 3.240695 31.053128 15.399264
2006-04-10 08:11:14 51°19.269 2°56.467 -999 3.240074 31.047361 15.365554
2006-04-10 08:11:20 51°19.277 2°56.495 -999 3.239039 31.034737 15.365554
2006-04-10 08:11:24 51°19.281 2°56.514 -999 3.240902 31.056146 15.331845
2006-04-10 08:11:30 51°19.289 2°56.543 -999 3.238729 31.033085 15.298136
2006-04-10 08:11:35 51°19.295 2°56.565 -999 3.236763 31.013042 15.331845
2006-04-10 08:11:40 51°19.302 2°56.59 -999 3.236763 31.013042 15.331845
2006-04-10 08:11:44 51°19.306 2°56.61 -999 3.236866 31.015781 15.331845
2006-04-10 08:11:50 51°19.314 2°56.636 -999 3.235935 31.007539 15.331845
2006-04-10 08:11:54 51°19.319 2°56.655 -999 3.235935 31.007539 15.365554
2006-04-10 08:12:00 51°19.327 2°56.684 -999 3.233658 30.984201 15.365554
2006-04-10 08:12:05 51°19.333 2°56.707 -999 3.236866 31.017422 15.399264
2006-04-10 08:12:10 51°19.34 2°56.731 -999 3.236866 31.017422 15.399264
2006-04-10 08:12:14 51°19.345 2°56.75 -999 3.232934 30.974057 15.399264
2006-04-10 08:12:20 51°19.352 2°56.78 -999 3.233141 30.977072 15.432973
2006-04-10 08:12:25 51°19.358 2°56.803 -999 3.232934 30.976515 15.432973
2006-04-10 08:12:30 51°19.364 2°56.826 -999 3.23045 30.950984 15.466683
2006-04-10 08:12:34 51°19.37 2°56.845 -999 3.230554 30.951263 15.500392
2006-04-10 08:12:39 51°19.376 2°56.869 -999 3.230554 30.951263 15.500392
2006-04-10 08:12:44 51°19.382 2°56.892 -999 3.23014 30.946872 15.567811
2006-04-10 08:12:50 51°19.39 2°56.922 -999 3.230243 30.947151 15.567811
2006-04-10 08:12:54 51°19.395 2°56.94 -999 3.228381 30.928209 15.60152
2006-04-10 08:13:00 51°19.403 2°56.969 -999 3.228381 30.929027 15.702648
2006-04-10 08:13:05 51°19.409 2°56.994 -999 3.227553 30.919427 15.736358
2006-04-10 08:13:10 51°19.416 2°57.017 -999 3.227553 30.919427 15.736358
2006-04-10 08:13:14 51°19.42 2°57.036 -999 3.227035 30.914757 15.770067
2006-04-10 08:13:20 51°19.428 2°57.065 -999 3.227449 30.920784 15.803777
2006-04-10 08:13:24 51°19.434 2°57.084 -999 3.227242 30.919407 15.871195
2006-04-10 08:13:30 51°19.44 2°57.113 -999 3.226208 30.907611 15.938614
2006-04-10 08:13:35 51°19.448 2°57.137 -999 3.225276 30.896097 15.972324
2006-04-10 08:13:40 51°19.454 2°57.16 -999 3.225276 30.896097 15.972324
2006-04-10 08:13:44 51°19.459 2°57.18 -999 3.225897 30.904318 16.073452
2006-04-10 08:13:50 51°19.468 2°57.208 -999 3.224241 30.890025 16.107161
2006-04-10 08:13:54 51°19.472 2°57.228 -999 3.227346 30.923778 16.073452
2006-04-10 08:14:00 51°19.48 2°57.256 -999 3.224966 30.897709 16.073452
2006-04-10 08:14:05 51°19.485 2°57.279 -999 3.221551 30.862302 16.073452
2006-04-10 08:14:10 51°19.492 2°57.303 -999 3.221551 30.862302 16.073452
2006-04-10 08:14:14 51°19.497 2°57.322 -999 3.220723 30.851888 16.073452
2006-04-10 08:14:20 51°19.506 2°57.351 -999 3.22331 30.880145 16.073452
2006-04-10 08:14:24 51°19.51 2°57.37 -999 3.219999 30.845022 16.039742
2006-04-10 08:14:30 51°19.519 2°57.398 -999 3.220723 30.851888 16.073452
2006-04-10 08:14:35 51°19.526 2°57.422 -999 3.220102 30.84612 16.073452
2006-04-10 08:14:40 51°19.533 2°57.446 -999 3.220102 30.84612 16.073452
2006-04-10 08:14:45 51°19.539 2°57.47 -999 3.218861 30.83295 16.140871
2006-04-10 08:14:50 51°19.546 2°57.494 -999 3.219688 30.840914 17.084734
2006-04-10 08:14:54 51°19.55 2°57.513 -999 3.218964 30.834863 16.646512
2006-04-10 08:15:00 51°19.559 2°57.542 -999 3.218136 30.829347 16.376836
2006-04-10 08:15:05 51°19.565 2°57.566 -999 3.220723 30.857605 16.309418
2006-04-10 08:15:10 51°19.571 2°57.591 -999 3.220723 30.857605 16.309418
2006-04-10 08:15:15 51°19.578 2°57.615 -999 3.21824 30.829629 16.309418
2006-04-10 08:15:20 51°19.584 2°57.639 -999 3.217205 30.817023 16.241999
2006-04-10 08:15:25 51°19.591 2°57.662 -999 3.219378 30.838437 16.17458
2006-04-10 08:15:30 51°19.597 2°57.688 -999 3.215135 30.793445 16.107161
2006-04-10 08:15:34 51°19.602 2°57.706 -999 3.214204 30.782756 15.972324
2006-04-10 08:15:40 51°19.609 2°57.735 -999 3.214204 30.782756 15.972324
2006-04-10 08:15:44 51°19.615 2°57.753 -999 3.214928 30.789621 15.938614
2006-04-10 08:15:48 51°19.62 2°57.773 -999 3.215032 30.789904 15.871195
2006-04-10 08:15:54 51°19.627 2°57.801 -999 3.214307 30.782224 15.770067
2006-04-10 08:16:00 51°19.635 2°57.83 -999 3.213894 30.777021 15.702648
2006-04-10 08:16:05 51°19.641 2°57.854 -999 3.212445 30.760849 15.702648
2006-04-10 08:16:10 51°19.648 2°57.877 -999 3.212445 30.760849 15.702648
2006-04-10 08:16:14 51°19.652 2°57.898 -999 3.211824 30.755081 15.668939
2006-04-10 08:16:20 51°19.66 2°57.927 -999 3.212238 30.759469 15.668939
2006-04-10 08:16:25 51°19.666 2°57.951 -999 3.21141 30.74988 15.668939
2006-04-10 08:16:30 51°19.672 2°57.974 -999 3.210582 30.741104 15.668939
2006-04-10 08:16:35 51°19.679 2°57.999 -999 3.214514 30.78116 15.63523
2006-04-10 08:16:40 51°19.686 2°58.02 -999 3.214514 30.78116 15.63523
2006-04-10 08:16:45 51°19.692 2°58.046 -999 3.210375 30.737284 15.63523
2006-04-10 08:16:50 51°19.698 2°58.069 -999 3.209961 30.73371 15.567811
2006-04-10 08:16:54 51°19.704 2°58.089 -999 3.209341 30.726317 15.534101
2006-04-10 08:17:00 51°19.712 2°58.116 -999 3.209341 30.726317 15.500392
2006-04-10 08:17:05 51°19.718 2°58.141 -999 3.209754 30.730704 15.432973
2006-04-10 08:17:10 51°19.724 2°58.164 -999 3.209754 30.730704 15.432973
2006-04-10 08:17:14 51°19.729 2°58.182 -999 3.207995 30.711247 15.399264
2006-04-10 08:17:20 51°19.736 2°58.212 -999 3.207788 30.707429 15.399264
2006-04-10 08:17:24 51°19.741 2°58.232 -999 3.207374 30.703855 15.399264
2006-04-10 08:17:30 51°19.749 2°58.258 -999 3.207788 30.707429 15.399264
2006-04-10 08:17:35 51°19.755 2°58.283 -999 3.207064 30.700565 15.365554
2006-04-10 08:17:38 51°19.759 2°58.298 -999 3.207064 30.700565 15.365554
2006-04-10 08:17:45 51°19.768 2°58.33 -999 3.207064 30.698941 15.365554
2006-04-10 08:17:50 51°19.774 2°58.355 -999 3.207167 30.696789 15.365554
2006-04-10 08:17:54 51°19.779 2°58.374 -999 3.206029 30.68473 15.365554
2006-04-10 08:18:00 51°19.787 2°58.403 -999 3.205615 30.679533 15.399264
2006-04-10 08:18:05 51°19.794 2°58.426 -999 3.205926 30.684445 15.399264
2006-04-10 08:18:10 51°19.8 2°58.449 -999 3.205926 30.684445 15.399264
2006-04-10 08:18:15 51°19.807 2°58.473 -999 3.20634 30.68883 15.365554
2006-04-10 08:18:20 51°19.813 2°58.497 -999 3.205305 30.677867 15.399264
2006-04-10 08:18:25 51°19.82 2°58.521 -999 3.193716 30.553498 15.399264
2006-04-10 08:18:30 51°19.825 2°58.545 -999 3.205201 30.676771 15.399264
2006-04-10 08:18:35 51°19.833 2°58.569 -999 3.206133 30.689073 15.399264
2006-04-10 08:18:40 51°19.838 2°58.593 -999 3.206133 30.689073 15.399264
2006-04-10 08:18:44 51°19.843 2°58.613 -999 3.207271 30.701134 15.399264
2006-04-10 08:18:50 51°19.85 2°58.641 -999 3.203753 30.661423 15.432973
2006-04-10 08:18:54 51°19.855 2°58.66 -999 3.204374 30.668 15.432973
2006-04-10 08:19:00 51°19.863 2°58.688 -999 3.203028 30.653749 15.432973
2006-04-10 08:19:05 51°19.869 2°58.713 -999 3.202925 30.651842 15.432973
2006-04-10 08:19:10 51°19.874 2°58.738 -999 3.202925 30.651842 15.432973
2006-04-10 08:19:14 51°19.88 2°58.757 -999 3.203339 30.656227 15.432973
2006-04-10 08:19:20 51°19.887 2°58.785 -999 3.203339 30.657849 15.466683
2006-04-10 08:19:25 51°19.894 2°58.809 -999 3.203649 30.661949 15.500392
2006-04-10 08:19:30 51°19.9 2°58.833 -999 3.203339 30.65866 15.500392
2006-04-10 08:19:34 51°19.905 2°58.853 -999 3.202304 30.647697 15.500392
2006-04-10 08:19:40 51°19.912 2°58.883 -999 3.202304 30.647697 15.500392
2006-04-10 08:19:45 51°19.919 2°58.905 -999 3.202822 30.652368 15.500392
2006-04-10 08:19:50 51°19.925 2°58.929 -999 3.202304 30.646076 15.500392
2006-04-10 08:19:55 51°19.932 2°58.953 -999 3.202511 30.649079 15.466683
2006-04-10 08:20:00 51°19.937 2°58.978 -999 3.201994 30.641977 15.466683
2006-04-10 08:20:04 51°19.944 2°58.996 -999 3.204684 30.669667 15.500392
2006-04-10 08:20:10 51°19.95 2°59.026 -999 3.204684 30.669667 15.500392
2006-04-10 08:20:14 51°19.957 2°59.044 -999 3.201476 30.635686 15.500392
2006-04-10 08:20:20 51°19.963 2°59.073 -999 3.201269 30.633494 15.534101
2006-04-10 08:20:24 51°19.968 2°59.093 -999 3.202718 30.64965 15.500392
2006-04-10 08:20:30 51°19.977 2°59.121 -999 3.201062 30.631302 15.534101
2006-04-10 08:20:35 51°19.983 2°59.146 -999 3.201683 30.637878 15.500392
2006-04-10 08:20:40 51°19.989 2°59.17 -999 3.201683 30.637878 15.500392
2006-04-10 08:20:44 51°19.994 2°59.19 -999 3.202615 30.648554 15.534101
2006-04-10 08:20:50 51°20.001 2°59.218 -999 3.202511 30.647458 15.567811
2006-04-10 08:20:55 51°20.008 2°59.243 -999 3.200752 30.628824 15.534101
2006-04-10 08:21:00 51°20.014 2°59.266 -999 3.199821 30.61896 15.567811
2006-04-10 08:21:04 51°20.019 2°59.286 -999 3.200028 30.622772 15.60152
2006-04-10 08:21:10 51°20.025 2°59.315 -999 3.200028 30.622772 15.60152
2006-04-10 08:21:15 51°20.033 2°59.339 -999 3.202615 30.653419 15.60152
2006-04-10 08:21:20 51°20.039 2°59.363 -999 3.19889 30.614765 15.60152
2006-04-10 08:21:24 51°20.044 2°59.383 -999 3.201994 30.649273 15.60152
2006-04-10 08:21:30 51°20.052 2°59.412 -999 3.199821 30.627061 15.63523
2006-04-10 08:21:34 51°20.057 2°59.431 -999 3.197337 30.602371 15.63523
2006-04-10 08:21:40 51°20.065 2°59.46 -999 3.197337 30.602371 15.63523
2006-04-10 08:21:45 51°20.072 2°59.485 -999 3.201166 30.640502 15.63523
2006-04-10 08:21:50 51°20.078 2°59.508 -999 3.200752 30.633686 15.668939
2006-04-10 08:21:55 51°20.084 2°59.533 -999 3.200545 30.627442 15.702648
2006-04-10 08:22:00 51°20.091 2°59.557 -999 3.201373 30.63378 15.702648
2006-04-10 08:22:05 51°20.097 2°59.582 -999 3.201062 30.630492 15.736358
2006-04-10 08:22:10 51°20.103 2°59.606 -999 3.201062 30.630492 15.736358
2006-04-10 08:22:14 51°20.108 2°59.626 -999 3.202408 30.64474 15.736358
2006-04-10 08:22:18 51°20.113 2°59.646 -999 3.199407 30.613766 15.736358
2006-04-10 08:22:24 51°20.122 2°59.674 -999 3.196923 30.589083 15.770067
2006-04-10 08:22:30 51°20.13 2°59.704 -999 3.199614 30.617578 15.770067
2006-04-10 08:22:34 51°20.134 2°59.724 -999 3.197337 30.594276 15.803777
2006-04-10 08:22:40 51°20.143 2°59.752 -999 3.197337 30.594276 15.803777
2006-04-10 08:22:44 51°20.148 2°59.772 -999 3.196303 30.583317 15.837486
2006-04-10 08:22:50 51°20.156 2°59.802 -999 3.198993 30.612621 15.871195
2006-04-10 08:22:55 51°20.163 2°59.827 -999 3.197958 30.600042 15.938614
2006-04-10 08:23:00 51°20.169 2°59.85 -999 3.197648 30.596755 16.006033
2006-04-10 08:23:05 51°20.175 2°59.876 -999 3.198579 30.60338 16.107161
2006-04-10 08:23:10 51°20.182 2°59.9 -999 3.198579 30.60338 16.107161
2006-04-10 08:23:15 51°20.188 2°59.926 -999 3.199614 30.6111 16.208289
2006-04-10 08:23:20 51°20.194 2°59.949 -999 3.199821 30.611673 16.309418
2006-04-10 08:23:24 51°20.199 2°59.969 -999 3.200442 30.620677 16.376836
2006-04-10 08:23:30 51°20.206 2°59.999 -999 3.200649 30.626918 16.309418
2006-04-10 08:23:34 51°20.211 3°0.018 -999 3.198269 30.60414 16.309418
2006-04-10 08:23:40 51°20.218 3°0.049 -999 3.198269 30.60414 16.309418
2006-04-10 08:23:44 51°20.223 3°0.069 -999 3.196406 30.587649 16.241999
2006-04-10 08:23:50 51°20.23 3°0.098 -999 3.196303 30.588172 16.17458
2006-04-10 08:23:54 51°20.236 3°0.117 -999 3.195061 30.575829 16.140871
2006-04-10 08:24:00 51°20.243 3°0.147 -999 3.194647 30.572253 16.208289
2006-04-10 08:24:05 51°20.25 3°0.172 -999 3.194647 30.572253 16.275708
2006-04-10 08:24:10 51°20.256 3°0.196 -999 3.194647 30.572253 16.275708
2006-04-10 08:24:14 51°20.261 3°0.215 -999 3.193923 30.564581 16.343127
2006-04-10 08:24:20 51°20.268 3°0.246 -999 3.193819 30.562677 16.343127
2006-04-10 08:24:25 51°20.275 3°0.27 -999 3.19651 30.591173 16.241999
2006-04-10 08:24:30 51°20.281 3°0.295 -999 3.194544 30.568731 16.107161
2006-04-10 08:24:34 51°20.286 3°0.315 -999 3.193716 30.559964 15.938614
2006-04-10 08:24:40 51°20.294 3°0.345 -999 3.193716 30.559964 15.938614
2006-04-10 08:24:44 51°20.3 3°0.363 -999 3.195371 30.579117 15.904905
2006-04-10 08:24:49 51°20.306 3°0.389 -999 3.19444 30.571679 15.938614
2006-04-10 08:24:54 51°20.313 3°0.414 -999 3.193302 30.560431 16.006033
2006-04-10 08:25:00 51°20.32 3°0.443 -999 3.193612 30.562911 16.006033
2006-04-10 08:25:04 51°20.325 3°0.463 -999 3.192164 30.549184 16.039742
2006-04-10 08:25:10 51°20.333 3°0.494 -999 3.192164 30.549184 16.039742
2006-04-10 08:25:15 51°20.34 3°0.517 -999 3.193509 30.564241 16.107161
2006-04-10 08:25:20 51°20.346 3°0.542 -999 3.19175 30.547225 16.073452
2006-04-10 08:25:25 51°20.352 3°0.569 -999 3.192785 30.557377 16.073452
2006-04-10 08:25:30 51°20.359 3°0.593 -999 3.191957 30.5478 16.140871
2006-04-10 08:25:34 51°20.364 3°0.614 -999 3.193199 30.559335 16.208289
2006-04-10 08:25:40 51°20.372 3°0.642 -999 3.193199 30.559335 16.208289
2006-04-10 08:25:45 51°20.377 3°0.669 -999 3.191439 30.539088 16.208289
2006-04-10 08:25:50 51°20.385 3°0.692 -999 3.192681 30.553047 16.241999
2006-04-10 08:25:54 51°20.389 3°0.712 -999 3.19444 30.571679 16.309418
2006-04-10 08:26:00 51°20.397 3°0.743 -999 3.190819 30.534128 16.343127
2006-04-10 08:26:05 51°20.404 3°0.768 -999 3.190405 30.532168 16.343127
2006-04-10 08:26:10 51°20.41 3°0.791 -999 3.190405 30.532168 16.343127
2006-04-10 08:26:14 51°20.414 3°0.812 -999 3.190715 30.537072 16.275708
2006-04-10 08:26:20 51°20.423 3°0.842 -999 3.189991 30.528592 16.275708
2006-04-10 08:26:25 51°20.429 3°0.866 -999 3.191129 30.540648 16.208289
2006-04-10 08:26:30 51°20.436 3°0.89 -999 3.192267 30.551897 16.140871
2006-04-10 08:26:34 51°20.441 3°0.911 -999 3.188439 30.512153 16.107161
2006-04-10 08:26:40 51°20.449 3°0.94 -999 3.188439 30.512153 16.107161
2006-04-10 08:26:44 51°20.454 3°0.96 -999 3.187818 30.506385 16.073452
2006-04-10 08:26:50 51°20.462 3°0.991 -999 3.187301 30.500099 16.073452
2006-04-10 08:26:54 51°20.468 3°1.011 -999 3.187818 30.507193 16.039742
2006-04-10 08:27:00 51°20.475 3°1.04 -999 3.19206 30.551321 16.039742
2006-04-10 08:27:04 51°20.481 3°1.059 -999 3.186887 30.495716 16.107161
2006-04-10 08:27:10 51°20.488 3°1.09 -999 3.186887 30.495716 16.107161
2006-04-10 08:27:15 51°20.496 3°1.116 -999 3.186576 30.491622 16.140871
2006-04-10 08:27:18 51°20.499 3°1.131 -999 3.18699 30.496812 16.241999
2006-04-10 08:27:24 51°20.507 3°1.16 -999 3.186369 30.490237 16.275708
2006-04-10 08:27:30 51°20.514 3°1.191 -999 3.186887 30.496523 16.309418
2006-04-10 08:27:34 51°20.521 3°1.211 -999 3.190612 30.535976 16.275708
2006-04-10 08:27:40 51°20.528 3°1.239 -999 3.190612 30.535976 16.275708
2006-04-10 08:27:44 51°20.533 3°1.259 -999 3.191129 30.542265 16.275708
2006-04-10 08:27:50 51°20.541 3°1.291 -999 3.186369 30.491851 16.17458
2006-04-10 08:27:54 51°20.547 3°1.31 -999 3.185335 30.479279 16.140871
2006-04-10 08:28:00 51°20.554 3°1.339 -999 3.18399 30.465035 16.140871
2006-04-10 08:28:05 51°20.561 3°1.365 -999 3.183783 30.462038 16.140871
2006-04-10 08:28:10 51°20.567 3°1.389 -999 3.183783 30.462038 16.140871
2006-04-10 08:28:14 51°20.573 3°1.408 -999 3.185852 30.483951 16.140871
2006-04-10 08:28:20 51°20.58 3°1.439 -999 3.183058 30.452757 16.107161
2006-04-10 08:28:25 51°20.586 3°1.465 -999 3.184403 30.467806 16.107161
2006-04-10 08:28:30 51°20.593 3°1.49 -999 3.182127 30.443704 16.107161
2006-04-10 08:28:34 51°20.598 3°1.511 -999 3.184093 30.464519 16.073452
2006-04-10 08:28:40 51°20.606 3°1.54 -999 3.184093 30.464519 16.073452
2006-04-10 08:28:45 51°20.613 3°1.565 -999 3.182334 30.445089 16.073452
2006-04-10 08:28:50 51°20.62 3°1.59 -999 3.181506 30.43552 16.073452
2006-04-10 08:28:55 51°20.627 3°1.615 -999 3.182024 30.439386 16.073452
2006-04-10 08:29:00 51°20.633 3°1.639 -999 3.185645 30.477728 16.073452
2006-04-10 08:29:04 51°20.639 3°1.66 -999 3.184403 30.462969 16.039742
2006-04-10 08:29:10 51°20.647 3°1.689 -999 3.184403 30.462969 16.039742
2006-04-10 08:29:15 51°20.653 3°1.715 -999 3.182231 30.439161 16.039742
2006-04-10 08:29:18 51°20.657 3°1.73 -999 3.181299 30.429304 16.073452
2006-04-10 08:29:24 51°20.666 3°1.76 -999 3.181299 30.430109 16.039742
2006-04-10 08:29:30 51°20.672 3°1.79 -999 3.181299 30.430109 15.938614
2006-04-10 08:29:34 51°20.678 3°1.809 -999 3.18161 30.43259 15.938614
2006-04-10 08:29:40 51°20.685 3°1.84 -999 3.18161 30.43259 15.938614
2006-04-10 08:29:45 51°20.692 3°1.865 -999 3.181817 30.43478 15.938614
2006-04-10 08:29:50 51°20.7 3°1.89 -999 3.18399 30.459393 15.904905
2006-04-10 08:29:55 51°20.706 3°1.914 -999 3.182955 30.449245 15.904905
2006-04-10 08:30:00 51°20.712 3°1.941 -999 3.183265 30.450114 15.871195
2006-04-10 08:30:04 51°20.717 3°1.959 -999 3.1843 30.461068 15.871195
2006-04-10 08:30:10 51°20.725 3°1.99 -999 3.1843 30.461068 15.871195
2006-04-10 08:30:14 51°20.73 3°2.009 -999 3.184921 30.468447 15.803777
2006-04-10 08:30:20 51°20.737 3°2.04 -999 3.185645 30.475309 15.837486
2006-04-10 08:30:24 51°20.743 3°2.061 -999 3.185335 30.472022 15.904905
2006-04-10 08:30:30 51°20.751 3°2.089 -999 3.185852 30.479919 16.006033
2006-04-10 08:30:34 51°20.757 3°2.109 -999 3.185438 30.476343 15.938614
2006-04-10 08:30:40 51°20.765 3°2.14 -999 3.185438 30.476343 15.938614
2006-04-10 08:30:44 51°20.77 3°2.159 -999 3.188646 30.510308 15.871195
2006-04-10 08:30:50 51°20.778 3°2.189 -999 3.185335 30.47686 15.837486
2006-04-10 08:30:55 51°20.784 3°2.215 -999 3.18461 30.469997 15.837486
2006-04-10 08:31:00 51°20.791 3°2.239 -999 3.18461 30.473222 15.803777
2006-04-10 08:31:05 51°20.797 3°2.264 -999 3.184714 30.473512 15.770067
2006-04-10 08:31:10 51°20.805 3°2.289 -999 3.184714 30.473512 15.770067
2006-04-10 08:31:15 51°20.81 3°2.313 -999 3.1843 30.468322 15.736358
2006-04-10 08:31:18 51°20.815 3°2.328 -999 3.182438 30.448601 15.736358
2006-04-10 08:31:24 51°20.822 3°2.358 -999 3.188025 30.506963 15.770067
2006-04-10 08:31:30 51°20.83 3°2.388 -999 3.183162 30.45627 15.803777
2006-04-10 08:31:34 51°20.835 3°2.408 -999 3.183576 30.460653 15.871195
2006-04-10 08:31:40 51°20.843 3°2.438 -999 3.183576 30.460653 15.871195
2006-04-10 08:31:44 51°20.848 3°2.458 -999 3.181092 30.434359 15.871195
2006-04-10 08:31:49 51°20.856 3°2.483 -999 3.18161 30.439032 15.938614
2006-04-10 08:31:54 51°20.863 3°2.509 -999 3.183369 30.458462 16.006033
2006-04-10 08:32:00 51°20.871 3°2.538 -999 3.180265 30.425596 16.073452
2006-04-10 08:32:04 51°20.876 3°2.558 -999 3.180679 30.429978 16.140871
2006-04-10 08:32:08 51°20.882 3°2.579 -999 3.180679 30.429978 16.140871
2006-04-10 08:32:14 51°20.889 3°2.609 -999 3.180782 30.431878 16.17458
2006-04-10 08:32:20 51°20.898 3°2.638 -999 3.17954 30.418733 16.17458
2006-04-10 08:32:25 51°20.904 3°2.665 -999 3.179851 30.422019 16.275708
2006-04-10 08:32:30 51°20.91 3°2.689 -999 3.179127 30.415961 16.343127
2006-04-10 08:32:34 51°20.916 3°2.709 -999 3.179127 30.416766 16.309418
2006-04-10 08:32:40 51°20.924 3°2.739 -999 3.179127 30.416766 16.309418
2006-04-10 08:32:44 51°20.929 3°2.758 -999 3.179333 30.419762 16.309418
2006-04-10 08:32:50 51°20.938 3°2.789 -999 3.180161 30.430137 16.309418
2006-04-10 08:32:54 51°20.943 3°2.81 -999 3.179334 30.422177 16.241999
2006-04-10 08:33:00 51°20.95 3°2.839 -999 3.180161 30.431748 16.17458
2006-04-10 08:33:05 51°20.957 3°2.865 -999 3.180368 30.433134 16.107161
2006-04-10 08:33:10 51°20.963 3°2.89 -999 3.180368 30.433134 16.107161
2006-04-10 08:33:14 51°20.968 3°2.911 -999 3.180989 30.439708 16.107161
2006-04-10 08:33:20 51°20.977 3°2.94 -999 3.183058 30.46243 16.17458
2006-04-10 08:33:24 51°20.982 3°2.961 -999 3.181196 30.445123 16.376836
2006-04-10 08:33:30 51°20.991 3°2.991 -999 3.18192 30.455212 16.477965
2006-04-10 08:33:34 51°20.996 3°3.01 -999 3.181196 30.449959 16.477965
2006-04-10 08:33:40 51°21.004 3°3.04 -999 3.181196 30.449959 16.477965
2006-04-10 08:33:44 51°21.01 3°3.06 -999 3.182024 30.459534 16.410546
2006-04-10 08:33:50 51°21.018 3°3.09 -999 3.181817 30.458148 16.241999
2006-04-10 08:33:54 51°21.023 3°3.111 -999 3.182955 30.469399 16.073452
2006-04-10 08:34:00 51°21.032 3°3.14 -999 3.183783 30.476554 15.972324
2006-04-10 08:34:04 51°21.037 3°3.161 -999 3.182024 30.458727 15.938614
2006-04-10 08:34:10 51°21.045 3°3.191 -999 3.182024 30.458727 15.938614
2006-04-10 08:34:15 51°21.052 3°3.216 -999 3.182231 30.461726 15.904905
2006-04-10 08:34:20 51°21.059 3°3.241 -999 3.18161 30.455956 15.904905
2006-04-10 08:34:24 51°21.064 3°3.262 -999 3.18192 30.457631 15.904905
2006-04-10 08:34:30 51°21.072 3°3.292 -999 3.1813 30.451861 15.938614
2006-04-10 08:34:35 51°21.078 3°3.318 -999 3.183162 30.471591 16.006033
2006-04-10 08:34:40 51°21.085 3°3.342 -999 3.183162 30.471591 16.006033
2006-04-10 08:34:44 51°21.09 3°3.362 -999 3.181403 30.452957 16.073452
2006-04-10 08:34:50 51°21.099 3°3.394 -999 3.180575 30.445801 16.140871
2006-04-10 08:34:55 51°21.105 3°3.419 -999 3.180265 30.444125 16.140871
2006-04-10 08:35:00 51°21.113 3°3.444 -999 3.180265 30.443319 16.140871
2006-04-10 08:35:05 51°21.119 3°3.469 -999 3.182024 30.461147 16.140871
2006-04-10 08:35:10 51°21.126 3°3.495 -999 3.182024 30.461147 16.140871
2006-04-10 08:35:15 51°21.133 3°3.52 -999 3.185128 30.495649 16.140871
2006-04-10 08:35:18 51°21.138 3°3.535 -999 3.180989 30.455024 16.17458
2006-04-10 08:35:24 51°21.146 3°3.566 -999 3.180886 30.454734 16.140871
2006-04-10 08:35:30 51°21.154 3°3.596 -999 3.182852 30.475565 16.140871
2006-04-10 08:35:34 51°21.159 3°3.616 -999 3.179644 30.443191 16.140871
2006-04-10 08:35:40 51°21.168 3°3.647 -999 3.179644 30.443191 16.140871
2006-04-10 08:35:45 51°21.174 3°3.672 -999 3.17923 30.439612 16.107161
2006-04-10 08:35:50 51°21.181 3°3.698 -999 3.182645 30.475793 16.073452
2006-04-10 08:35:54 51°21.188 3°3.718 -999 3.178609 30.433034 16.107161
2006-04-10 08:36:00 51°21.195 3°3.749 -999 3.179437 30.443417 16.140871
2006-04-10 08:36:04 51°21.202 3°3.768 -999 3.178299 30.432164 16.17458
2006-04-10 08:36:10 51°21.211 3°3.798 -999 3.178299 30.432164 16.17458
2006-04-10 08:36:15 51°21.218 3°3.824 -999 3.178196 30.431067 16.17458
2006-04-10 08:36:20 51°21.225 3°3.849 -999 3.182852 30.479601 16.208289
2006-04-10 08:36:25 51°21.232 3°3.875 -999 3.17892 30.438742 16.241999
2006-04-10 08:36:30 51°21.239 3°3.9 -999 3.179023 30.440644 16.275708
2006-04-10 08:36:34 51°21.244 3°3.92 -999 3.179023 30.440644 16.309418
2006-04-10 08:36:40 51°21.252 3°3.952 -999 3.179023 30.440644 16.309418
2006-04-10 08:36:44 51°21.258 3°3.972 -999 3.179023 30.441451 16.343127
2006-04-10 08:36:49 51°21.264 3°3.998 -999 3.177989 30.431293 16.410546
2006-04-10 08:36:55 51°21.273 3°4.026 -999 3.177678 30.430422 16.545383
2006-04-10 08:37:00 51°21.28 3°4.052 -999 3.177678 30.43284 16.612802
2006-04-10 08:37:05 51°21.287 3°4.077 -999 3.177678 30.434453 16.579093
2006-04-10 08:37:10 51°21.294 3°4.102 -999 3.177678 30.434453 16.579093
2006-04-10 08:37:14 51°21.299 3°4.123 -999 3.179023 30.44871 16.646512
2006-04-10 08:37:20 51°21.307 3°4.152 -999 3.180369 30.459739 16.579093
2006-04-10 08:37:25 51°21.314 3°4.178 -999 3.182231 30.47625 16.376836
2006-04-10 08:37:30 51°21.321 3°4.202 -999 3.182748 30.478504 16.309418
2006-04-10 08:37:34 51°21.326 3°4.222 -999 3.184404 30.491204 16.275708
2006-04-10 08:37:40 51°21.334 3°4.253 -999 3.184404 30.491204 16.275708
2006-04-10 08:37:44 51°21.34 3°4.272 -999 3.183472 30.479721 16.275708
2006-04-10 08:37:50 51°21.347 3°4.303 -999 3.183679 30.4803 16.241999
2006-04-10 08:37:55 51°21.352 3°4.329 -999 3.183369 30.480239 16.208289
2006-04-10 08:38:00 51°21.359 3°4.354 -999 3.182852 30.476372 16.140871
2006-04-10 08:38:04 51°21.364 3°4.374 -999 3.18192 30.467311 16.107161
2006-04-10 08:38:10 51°21.37 3°4.406 -999 3.18192 30.467311 16.107161
2006-04-10 08:38:14 51°21.375 3°4.426 -999 3.180886 30.457154 16.073452
2006-04-10 08:38:20 51°21.381 3°4.458 -999 3.180472 30.451962 16.039742
2006-04-10 08:38:24 51°21.385 3°4.478 -999 3.17892 30.437935 16.006033
2006-04-10 08:38:30 51°21.392 3°4.509 -999 3.178609 30.435453 16.006033
2006-04-10 08:38:35 51°21.398 3°4.535 -999 3.177057 30.419814 15.972324
2006-04-10 08:38:40 51°21.403 3°4.561 -999 3.177057 30.419814 15.972324
2006-04-10 08:38:44 51°21.407 3°4.581 -999 3.177782 30.42507 15.972324
2006-04-10 08:38:50 51°21.413 3°4.613 -999 3.177471 30.420976 15.972324
2006-04-10 08:38:54 51°21.417 3°4.633 -999 3.175505 30.401759 15.938614
2006-04-10 08:39:00 51°21.423 3°4.666 -999 3.174781 30.395696 15.938614
2006-04-10 08:39:05 51°21.428 3°4.692 -999 3.174367 30.391312 15.938614
2006-04-10 08:39:10 51°21.433 3°4.718 -999 3.174367 30.391312 15.938614
2006-04-10 08:39:14 51°21.438 3°4.739 -999 3.175816 30.408269 15.938614
2006-04-10 08:39:20 51°21.443 3°4.77 -999 3.173126 30.382182 15.972324
2006-04-10 08:39:24 51°21.448 3°4.791 -999 3.173643 30.386053 15.972324
2006-04-10 08:39:30 51°21.455 3°4.822 -999 3.174057 30.390438 15.972324
2006-04-10 08:39:34 51°21.458 3°4.843 -999 3.173126 30.381377 15.972324
2006-04-10 08:39:40 51°21.465 3°4.875 -999 3.173126 30.381377 15.972324
2006-04-10 08:39:45 51°21.471 3°4.901 -999 3.173333 30.384374 15.972324
2006-04-10 08:39:50 51°21.476 3°4.927 -999 3.175505 30.406591 16.006033
2006-04-10 08:39:54 51°21.48 3°4.948 -999 3.172091 30.370415 16.006033
2006-04-10 08:40:00 51°21.487 3°4.98 -999 3.171574 30.365739 15.972324
2006-04-10 08:40:05 51°21.491 3°5.007 -999 3.171574 30.36413 16.006033
2006-04-10 08:40:10 51°21.496 3°5.033 -999 3.171574 30.36413 16.006033
2006-04-10 08:40:14 51°21.501 3°5.054 -999 3.171056 30.35865 16.006033
2006-04-10 08:40:18 51°21.505 3°5.075 -999 3.170539 30.352365 16.006033
2006-04-10 08:40:24 51°21.511 3°5.107 -999 3.169918 30.347397 16.006033
2006-04-10 08:40:30 51°21.518 3°5.138 -999 3.169194 30.342136 16.006033
2006-04-10 08:40:34 51°21.522 3°5.16 -999 3.16878 30.337752 16.006033
2006-04-10 08:40:40 51°21.529 3°5.19 -999 3.16878 30.337752 16.006033
2006-04-10 08:40:44 51°21.532 3°5.212 -999 3.170953 30.362379 16.006033
2006-04-10 08:40:50 51°21.539 3°5.243 -999 3.167642 30.329713 16.006033
2006-04-10 08:40:55 51°21.544 3°5.27 -999 3.167435 30.327521 16.039742
2006-04-10 08:41:00 51°21.55 3°5.296 -999 3.167332 30.326425 16.073452
2006-04-10 08:41:05 51°21.555 3°5.322 -999 3.169608 30.350541 16.107161
2006-04-10 08:41:10 51°21.561 3°5.349 -999 3.169608 30.350541 16.107161
2006-04-10 08:41:14 51°21.565 3°5.37 -999 3.170229 30.357119 16.107161
2006-04-10 08:41:20 51°21.572 3°5.401 -999 3.168159 30.332783 16.107161
2006-04-10 08:41:24 51°21.576 3°5.422 -999 3.166711 30.315832 16.140871
2006-04-10 08:41:30 51°21.583 3°5.453 -999 3.165986 30.309766 16.17458
2006-04-10 08:41:34 51°21.587 3°5.474 -999 3.165159 30.302604 16.17458
2006-04-10 08:41:40 51°21.594 3°5.505 -999 3.165159 30.302604 16.17458
2006-04-10 08:41:45 51°21.599 3°5.531 -999 3.164228 30.294346 16.17458
2006-04-10 08:41:50 51°21.605 3°5.558 -999 3.163503 30.286674 16.208289
2006-04-10 08:41:54 51°21.61 3°5.578 -999 3.162986 30.280392 16.208289
2006-04-10 08:42:00 51°21.615 3°5.61 -999 3.163607 30.28456 16.208289
2006-04-10 08:42:05 51°21.621 3°5.637 -999 3.160813 30.253371 16.208289
2006-04-10 08:42:10 51°21.627 3°5.661 -999 3.160813 30.253371 16.208289
2006-04-10 08:42:14 51°21.63 3°5.683 -999 3.159468 30.239128 16.208289
2006-04-10 08:42:20 51°21.638 3°5.713 -999 3.157606 30.218608 16.208289
2006-04-10 08:42:25 51°21.642 3°5.739 -999 3.156157 30.204073 16.208289
2006-04-10 08:42:30 51°21.647 3°5.766 -999 3.155123 30.18992 16.208289
2006-04-10 08:42:35 51°21.653 3°5.791 -999 3.154191 30.177665 16.208289
2006-04-10 08:42:40 51°21.659 3°5.818 -999 3.154191 30.177665 16.208289
2006-04-10 08:42:44 51°21.662 3°5.838 -999 3.152536 30.160943 16.208289
2006-04-10 08:42:50 51°21.669 3°5.869 -999 3.151708 30.152982 16.208289
2006-04-10 08:42:55 51°21.675 3°5.894 -999 3.149639 30.131881 16.208289
2006-04-10 08:43:00 51°21.679 3°5.921 -999 3.148397 30.118742 16.17458
2006-04-10 08:43:05 51°21.684 3°5.946 -999 3.148604 30.119336 16.208289
2006-04-10 08:43:10 51°21.69 3°5.973 -999 3.148604 30.119336 16.208289
2006-04-10 08:43:14 51°21.694 3°5.993 -999 3.145294 30.085102 16.208289
2006-04-10 08:43:20 51°21.7 3°6.026 -999 3.143845 30.068981 16.17458
2006-04-10 08:43:24 51°21.705 3°6.045 -999 3.146535 30.096644 16.17458
2006-04-10 08:43:28 51°21.708 3°6.066 -999 3.140845 30.036445 16.17458
2006-04-10 08:43:34 51°21.714 3°6.097 -999 3.139086 30.017842 16.208289
2006-04-10 08:43:40 51°21.721 3°6.128 -999 3.139086 30.017842 16.208289
2006-04-10 08:43:45 51°21.726 3°6.155 -999 3.137534 30.002223 16.208289
2006-04-10 08:43:50 51°21.731 3°6.18 -999 3.13712 29.999435 16.208289
2006-04-10 08:43:54 51°21.734 3°6.202 -999 3.136603 29.993169 16.208289
2006-04-10 08:44:00 51°21.74 3°6.234 -999 3.135051 29.977551 16.241999
2006-04-10 08:44:05 51°21.745 3°6.261 -999 3.133396 29.960839 16.241999
2006-04-10 08:44:10 51°21.75 3°6.286 -999 3.133396 29.960839 16.241999
2006-04-10 08:44:14 51°21.753 3°6.309 -999 3.132464 29.949406 16.241999
2006-04-10 08:44:19 51°21.758 3°6.334 -999 3.13412 29.966117 16.241999
2006-04-10 08:44:24 51°21.762 3°6.362 -999 3.130499 29.928621 16.241999
2006-04-10 08:44:30 51°21.767 3°6.394 -999 3.129671 29.920663 16.241999
2006-04-10 08:44:35 51°21.772 3°6.42 -999 3.131637 29.94224 16.275708
2006-04-10 08:44:40 51°21.776 3°6.448 -999 3.131637 29.94224 16.275708